M I D A S
Marine Information and Data Acquisition System
Tripno 2081 of the Zeeleeuw from 2011-04-20 06:41:16 to 2011-04-20 14:45:01
Back to CruiseResearch ActivitiesStationsMapUnderway DataData graphs

EquipmentUnitsComment
TimeDGPSUTC
LatitudeDGPSDM.mWGS84
LongitudeDGPSDM.mWGS84
TemperatureSBE03/SBE38deg celciusITS90
ConductivitySBE21S/mITS90
SalinitySBE21 Practical Salinity Units
ChlorophylAChelsea fluorimeterg/lCalibrated in Aceton
Missing or incorrect values are displayed as -999
Sea surface data collected by the RV Zeeleeuw from 2011-04-20 06:39:02 to 2011-04-20 14:47:07
                                                                                    Next 1000 lines
Time Latitude Longitude Temperature Conductivity Salinity ChlorophylA
2011-04-20 06:39:12 51°13.662 2°55.955 19.7781 0.009708 0.049798 -3.020363
2011-04-20 06:39:16 51°13.662 2°55.953 19.8643 0.009708 0.049799 -3.020363
2011-04-20 06:39:21 51°13.663 2°55.95 19.9061 0.009708 0.049801 -3.020363
2011-04-20 06:39:26 51°13.664 2°55.947 19.9157 0.009708 0.049802 -3.020363
2011-04-20 06:39:32 51°13.665 2°55.942 19.9239 0.009708 0.049803 -3.020363
2011-04-20 06:39:38 51°13.667 2°55.936 19.9277 0.009708 0.049803 -3.020363
2011-04-20 06:39:44 51°13.669 2°55.929 19.9221 0.009708 0.049804 -3.020363
2011-04-20 06:39:49 51°13.67 2°55.923 19.9443 0.009708 0.049806 -3.020363
2011-04-20 06:39:55 51°13.672 2°55.915 19.9628 0.009708 0.049807 -3.020363
2011-04-20 06:40:00 51°13.674 2°55.908 19.9674 0.009708 0.049808 -3.020363
2011-04-20 06:40:05 51°13.675 2°55.9 19.9571 0.009708 0.04981 -3.020363
2011-04-20 06:40:10 51°13.677 2°55.892 19.9743 0.009708 0.04981 -3.020363
2011-04-20 06:40:15 51°13.678 2°55.883 19.9817 0.009708 0.049811 -3.020363
2011-04-20 06:40:20 51°13.68 2°55.874 19.9905 0.009708 0.049812 -3.020363
2011-04-20 06:40:25 51°13.681 2°55.866 19.9963 0.009708 0.049813 -3.020363
2011-04-20 06:40:30 51°13.682 2°55.857 20.0255 0.009708 0.049814 -3.020363
2011-04-20 06:40:35 51°13.683 2°55.849 20.0314 0.009708 0.049815 -3.020363
2011-04-20 06:40:40 51°13.684 2°55.842 20.0195 0.009708 0.049815 -3.020363
2011-04-20 06:40:45 51°13.686 2°55.834 20.0108 0.009708 0.049816 -3.020363
2011-04-20 06:40:50 51°13.687 2°55.826 20.0081 0.009708 0.049817 -3.020363
2011-04-20 06:40:55 51°13.688 2°55.819 20.0028 0.009708 0.049818 -3.020363
2011-04-20 06:41:00 51°13.688 2°55.812 20.0021 0.009708 0.049819 -3.020363
2011-04-20 06:41:05 51°13.689 2°55.805 20.0006 0.009708 0.04982 -3.020363
2011-04-20 06:41:10 51°13.69 2°55.798 19.9993 0.009708 0.04982 -3.020363
2011-04-20 06:41:15 51°13.69 2°55.791 19.9986 0.009708 0.04982 -3.020363
2011-04-20 06:41:20 51°13.69 2°55.785 19.9972 0.009708 0.049821 -3.020363
2011-04-20 06:41:25 51°13.691 2°55.779 19.9931 0.009708 0.049822 -3.020363
2011-04-20 06:41:30 51°13.691 2°55.772 19.9923 0.009708 0.049823 -3.020363
2011-04-20 06:41:35 51°13.692 2°55.766 19.9926 0.009708 0.049824 -3.020363
2011-04-20 06:41:40 51°13.692 2°55.76 19.9916 0.009708 0.049824 -3.020363
2011-04-20 06:41:45 51°13.692 2°55.755 19.9909 0.009708 0.049825 -3.020363
2011-04-20 06:41:50 51°13.692 2°55.751 19.9894 0.009708 0.049825 -3.020363
2011-04-20 06:41:55 51°13.692 2°55.748 19.9982 0.009708 0.049826 -3.020363
2011-04-20 06:42:00 51°13.692 2°55.745 20.0049 0.009708 0.049826 -3.020363
2011-04-20 06:42:04 51°13.692 2°55.744 20.0043 0.009708 0.049827 -3.020363
2011-04-20 06:42:09 51°13.692 2°55.742 20.0054 0.009708 0.049827 -3.020363
2011-04-20 06:42:14 51°13.692 2°55.741 20.0038 0.009708 0.049828 -3.020363
2011-04-20 06:42:20 51°13.693 2°55.741 20.0033 0.009708 0.049828 -3.020363
2011-04-20 06:42:24 51°13.694 2°55.741 20.001 0.009708 0.049829 -3.020363
2011-04-20 06:42:29 51°13.695 2°55.742 20.0011 0.009708 0.04983 -3.020363
2011-04-20 06:42:34 51°13.696 2°55.743 20.0011 0.009708 0.049831 -3.020363
2011-04-20 06:42:39 51°13.697 2°55.743 20.0009 0.009708 0.049831 -3.020363
2011-04-20 06:42:44 51°13.698 2°55.744 20.0002 0.009708 0.049831 -3.020363
2011-04-20 06:42:49 51°13.7 2°55.745 20.0015 0.009708 0.049831 -3.020363
2011-04-20 06:42:54 51°13.702 2°55.746 20.0031 0.009708 0.049832 -3.020363
2011-04-20 06:42:59 51°13.704 2°55.747 20.0059 0.009708 0.049833 -3.020363
2011-04-20 06:43:04 51°13.706 2°55.748 20.0095 0.009708 0.049833 -3.020363
2011-04-20 06:43:10 51°13.709 2°55.748 20.014 0.009708 0.049833 -3.020363
2011-04-20 06:43:15 51°13.711 2°55.748 20.0278 0.009708 0.049834 -3.020363
2011-04-20 06:43:20 51°13.714 2°55.748 20.0362 0.009708 0.049835 -3.020363
2011-04-20 06:43:25 51°13.717 2°55.747 20.048 0.009708 0.049836 -3.020363
2011-04-20 06:43:30 51°13.72 2°55.746 20.0598 0.009708 0.049837 -3.020363
2011-04-20 06:43:35 51°13.723 2°55.744 20.0767 0.009708 0.049837 -3.020363
2011-04-20 06:43:40 51°13.727 2°55.742 20.0813 0.009708 0.049837 -3.020363
2011-04-20 06:43:44 51°13.73 2°55.74 20.0815 0.009708 0.049838 -3.020363
2011-04-20 06:43:50 51°13.734 2°55.736 20.0829 0.009708 0.049839 -3.020363
2011-04-20 06:43:55 51°13.738 2°55.732 20.0847 0.009708 0.049839 -3.020363
2011-04-20 06:44:00 51°13.742 2°55.727 20.0703 0.009708 0.049839 -3.020363
2011-04-20 06:44:04 51°13.746 2°55.723 20.0636 0.009708 0.04984 -3.020363
2011-04-20 06:44:09 51°13.752 2°55.716 20.03 0.009708 0.04984 -3.020363
2011-04-20 06:44:15 51°13.759 2°55.707 20.0107 0.009708 0.049841 -3.020363
2011-04-20 06:44:20 51°13.766 2°55.7 19.9601 0.009708 0.049841 -3.020363
2011-04-20 06:44:25 51°13.773 2°55.691 19.8882 0.009708 0.049842 -3.020363
2011-04-20 06:44:30 51°13.781 2°55.683 19.8013 0.009708 0.049842 -3.020363
2011-04-20 06:44:35 51°13.79 2°55.674 19.7475 0.009708 0.049843 -3.020363
2011-04-20 06:44:40 51°13.799 2°55.665 19.7018 0.009708 0.049843 -3.020363
2011-04-20 06:44:45 51°13.809 2°55.656 19.6845 0.009708 0.049843 -3.020363
2011-04-20 06:44:50 51°13.819 2°55.648 19.6769 0.009708 0.049844 -3.020363
2011-04-20 06:44:55 51°13.83 2°55.639 19.6832 0.009708 0.049844 -3.020363
2011-04-20 06:45:00 51°13.841 2°55.631 19.6736 0.009708 0.049845 -3.020363
2011-04-20 06:45:04 51°13.85 2°55.624 19.7651 0.009708 0.049845 -3.020363
2011-04-20 06:45:09 51°13.862 2°55.614 19.7755 0.009708 0.049845 -3.020363
2011-04-20 06:45:15 51°13.877 2°55.603 19.699 0.009708 0.049846 -3.020363
2011-04-20 06:45:20 51°13.889 2°55.594 19.6961 0.009708 0.049847 -3.020363
2011-04-20 06:45:25 51°13.902 2°55.584 19.6531 0.009708 0.049848 -3.020363
2011-04-20 06:45:30 51°13.915 2°55.575 19.701 0.009708 0.049849 -3.020363
2011-04-20 06:45:35 51°13.928 2°55.566 19.6696 0.009708 0.049849 -3.020363
2011-04-20 06:45:40 51°13.941 2°55.556 19.6699 0.009708 0.049849 -3.020363
2011-04-20 06:45:44 51°13.952 2°55.548 19.6984 0.009708 0.04985 -3.020363
2011-04-20 06:45:49 51°13.965 2°55.539 19.7054 0.009708 0.049851 -3.020363
2011-04-20 06:45:54 51°13.979 2°55.53 19.7195 0.009708 0.049852 -3.020363
2011-04-20 06:45:59 51°13.993 2°55.52 19.7286 0.009708 0.049853 -3.020363
2011-04-20 06:46:04 51°14.006 2°55.511 19.7381 0.009605 0.049405 -3.020363
2011-04-20 06:46:09 51°14.02 2°55.501 19.7336 0.009605 0.049405 -3.020363
2011-04-20 06:46:14 51°14.034 2°55.492 19.7891 0.009708 0.049855 -3.020363
2011-04-20 06:46:20 51°14.051 2°55.479 19.778 0.009605 0.049407 -3.020363
2011-04-20 06:46:24 51°14.062 2°55.472 19.7964 0.009605 0.049408 -3.020363
2011-04-20 06:46:30 51°14.079 2°55.459 19.8062 0.009708 0.049858 -3.020363
2011-04-20 06:46:35 51°14.093 2°55.449 19.8525 0.009708 0.04986 -3.020363
2011-04-20 06:46:40 51°14.106 2°55.437 19.8954 0.009708 0.04986 -3.020363
2011-04-20 06:46:45 51°14.12 2°55.426 19.8724 0.009605 0.049411 -3.020363
2011-04-20 06:46:50 51°14.134 2°55.414 19.8008 0.009605 0.049413 -3.020363
2011-04-20 06:46:55 51°14.148 2°55.403 19.834 0.009605 0.049414 -3.020363
2011-04-20 06:47:00 51°14.161 2°55.392 19.7919 0.009605 0.049415 -3.020363
2011-04-20 06:47:05 51°14.174 2°55.381 19.852 0.009605 0.049417 -3.020363
2011-04-20 06:47:10 51°14.186 2°55.369 19.8597 0.009605 0.049417 -3.020363
2011-04-20 06:47:15 51°14.198 2°55.358 19.8635 0.009605 0.049419 -3.020363
2011-04-20 06:47:20 51°14.21 2°55.347 19.8737 0.009605 0.04942 -3.020363
2011-04-20 06:47:25 51°14.22 2°55.336 19.8724 0.009605 0.049422 -3.020363
2011-04-20 06:47:30 51°14.231 2°55.326 19.8779 0.009605 0.049424 -3.020363
2011-04-20 06:47:35 51°14.241 2°55.316 19.8918 0.009605 0.049425 -3.020363
2011-04-20 06:47:40 51°14.251 2°55.306 19.8996 0.009605 0.049425 -3.020363
2011-04-20 06:47:45 51°14.26 2°55.297 19.9055 0.009605 0.049427 -3.020363
2011-04-20 06:47:50 51°14.269 2°55.287 19.9086 0.009605 0.049429 -3.020363
2011-04-20 06:47:55 51°14.278 2°55.278 19.9217 0.009605 0.049431 -3.020363
2011-04-20 06:48:00 51°14.287 2°55.269 19.919 0.009605 0.049433 -3.020363
2011-04-20 06:48:05 51°14.295 2°55.261 19.9311 0.009605 0.049435 -3.020363
2011-04-20 06:48:10 51°14.303 2°55.253 19.928 0.009605 0.049435 -3.020363
2011-04-20 06:48:15 51°14.31 2°55.245 19.9464 0.009605 0.049437 -3.020363
2011-04-20 06:48:20 51°14.318 2°55.238 19.955 0.009605 0.049439 -3.020363
2011-04-20 06:48:25 51°14.325 2°55.23 19.9639 0.009605 0.04944 -3.020363
2011-04-20 06:48:30 51°14.332 2°55.224 19.9698 0.009605 0.049443 -3.020363
2011-04-20 06:48:35 51°14.339 2°55.217 19.9771 0.009605 0.049445 -3.020363
2011-04-20 06:48:40 51°14.345 2°55.21 19.9835 0.009605 0.049445 -3.020363
2011-04-20 06:48:44 51°14.35 2°55.205 19.9912 0.009605 0.049447 -3.020363
2011-04-20 06:48:50 51°14.357 2°55.197 19.9811 0.009605 0.049449 -3.020363
2011-04-20 06:48:55 51°14.363 2°55.191 19.9708 0.009605 0.049451 -3.020363
2011-04-20 06:49:00 51°14.369 2°55.185 19.9669 0.009605 0.049452 -3.020363
2011-04-20 06:49:05 51°14.375 2°55.179 19.9795 0.009605 0.049454 -3.020363
2011-04-20 06:49:10 51°14.381 2°55.174 19.9779 0.009605 0.049454 -3.020363
2011-04-20 06:49:15 51°14.386 2°55.168 19.9764 0.009605 0.049456 -3.020363
2011-04-20 06:49:20 51°14.392 2°55.162 19.9841 0.009605 0.049458 -3.020363
2011-04-20 06:49:24 51°14.396 2°55.158 19.9992 0.009605 0.049459 -3.020363
2011-04-20 06:49:30 51°14.403 2°55.151 20.0094 0.009605 0.04946 -3.020363
2011-04-20 06:49:35 51°14.408 2°55.144 19.9851 0.009605 0.049462 -3.020363
2011-04-20 06:49:40 51°14.414 2°55.138 19.9743 0.009605 0.049462 -3.020363
2011-04-20 06:49:45 51°14.42 2°55.131 19.9877 0.009605 0.049463 -3.020363
2011-04-20 06:49:50 51°14.427 2°55.124 20.0073 0.009605 0.049465 -3.020363
2011-04-20 06:49:55 51°14.434 2°55.116 20.0108 0.009605 0.049466 -3.020363
2011-04-20 06:49:59 51°14.441 2°55.109 20.0206 0.009605 0.049467 -3.020363
2011-04-20 06:50:04 51°14.449 2°55.1 20.005 0.009605 0.049468 -3.020363
2011-04-20 06:50:10 51°14.459 2°55.087 19.9737 0.009605 0.049468 -3.020363
2011-04-20 06:50:15 51°14.468 2°55.075 19.9742 0.009605 0.04947 -3.020363
2011-04-20 06:50:20 51°14.477 2°55.062 19.9465 0.009605 0.049471 -3.020363
2011-04-20 06:50:24 51°14.484 2°55.051 19.9475 0.009605 0.049471 -3.020363
2011-04-20 06:50:29 51°14.494 2°55.037 19.8463 0.009605 0.049472 -3.020363
2011-04-20 06:50:35 51°14.506 2°55.018 19.8279 0.009605 0.049473 -3.020363
2011-04-20 06:50:39 51°14.514 2°55.005 19.8303 0.009605 0.049473 -3.020363
2011-04-20 06:50:44 51°14.524 2°54.987 19.806 0.009605 0.049474 -3.020363
2011-04-20 06:50:48 51°14.533 2°54.973 19.8311 0.009605 0.049475 -3.020363
2011-04-20 06:50:53 51°14.543 2°54.954 19.9096 0.009605 0.049476 -3.020363
2011-04-20 06:50:58 51°14.554 2°54.934 19.8899 0.009605 0.049477 -3.020363
2011-04-20 06:51:03 51°14.564 2°54.912 19.8162 0.009605 0.049478 -3.020363
2011-04-20 06:51:08 51°14.574 2°54.89 19.7135 0.009605 0.049478 -3.020363
2011-04-20 06:51:12 51°14.582 2°54.872 19.6769 0.009605 0.049479 -3.020363
2011-04-20 06:51:17 51°14.593 2°54.848 19.6106 0.009605 0.04948 -3.020363
2011-04-20 06:51:22 51°14.603 2°54.825 19.58 0.009605 0.049481 -3.020363
2011-04-20 06:51:27 51°14.614 2°54.801 19.5523 0.009605 0.049482 -3.020363
2011-04-20 06:51:32 51°14.625 2°54.778 19.6407 0.009605 0.049482 -3.020363
2011-04-20 06:51:36 51°14.634 2°54.759 19.7319 0.009605 0.049482 -3.020363
2011-04-20 06:51:41 51°14.646 2°54.737 19.7347 0.009605 0.049483 -3.020363
2011-04-20 06:51:47 51°14.661 2°54.709 19.793 0.009605 0.049484 -3.020363
2011-04-20 06:51:51 51°14.67 2°54.691 19.809 0.009605 0.049486 -3.020363
2011-04-20 06:51:56 51°14.682 2°54.668 19.8007 0.009605 0.049487 -3.020363
2011-04-20 06:52:01 51°14.694 2°54.645 19.8728 0.009605 0.049488 -3.020363
2011-04-20 06:52:06 51°14.705 2°54.622 19.8695 0.009605 0.049488 -3.020363
2011-04-20 06:52:12 51°14.718 2°54.593 19.8484 0.009605 0.04949 -3.020363
2011-04-20 06:52:16 51°14.727 2°54.574 19.81 0.009605 0.049492 -3.020363
2011-04-20 06:52:21 51°14.738 2°54.55 19.7602 0.009605 0.049493 -3.020363
2011-04-20 06:52:26 51°14.749 2°54.526 19.7719 0.009605 0.049495 -3.020363
2011-04-20 06:52:32 51°14.762 2°54.496 19.7276 0.009605 0.049496 -3.020363
2011-04-20 06:52:36 51°14.77 2°54.477 19.6919 0.009605 0.049496 -3.020363
2011-04-20 06:52:41 51°14.781 2°54.453 19.623 0.009605 0.049498 -3.020363
2011-04-20 06:52:46 51°14.792 2°54.429 19.6014 0.009605 0.049499 -3.020363
2011-04-20 06:52:52 51°14.805 2°54.401 19.5998 0.009605 0.049501 -3.020363
2011-04-20 06:52:56 51°14.814 2°54.382 19.6262 0.009605 0.049502 -3.020363
2011-04-20 06:53:00 51°14.824 2°54.364 19.665 0.009605 0.049504 -3.020363
2011-04-20 06:53:06 51°14.839 2°54.339 19.6853 0.009605 0.049504 -3.020363
2011-04-20 06:53:12 51°14.855 2°54.313 19.672 0.009605 0.049505 -3.020363
2011-04-20 06:53:16 51°14.865 2°54.297 19.7131 0.009605 0.049506 -3.020363
2011-04-20 06:53:22 51°14.881 2°54.274 19.6989 0.009605 0.049508 -3.020363
2011-04-20 06:53:26 51°14.892 2°54.258 19.7506 0.009605 0.04951 -3.020363
2011-04-20 06:53:31 51°14.906 2°54.24 19.7518 0.009605 0.049511 -3.020363
2011-04-20 06:53:36 51°14.919 2°54.222 19.7435 0.009605 0.049511 -3.020363
2011-04-20 06:53:41 51°14.933 2°54.204 19.707 0.009605 0.049513 -3.020363
2011-04-20 06:53:47 51°14.95 2°54.184 19.7332 0.009605 0.049514 -3.020363
2011-04-20 06:53:52 51°14.964 2°54.167 19.718 0.009605 0.049516 -3.020363
2011-04-20 06:53:56 51°14.975 2°54.154 19.7291 0.009605 0.049518 -3.020363
2011-04-20 06:54:02 51°14.991 2°54.133 19.7542 0.009605 0.04952 -3.020363
2011-04-20 06:54:06 51°15.003 2°54.12 19.7693 0.009605 0.04952 -3.020363
2011-04-20 06:54:12 51°15.019 2°54.099 19.7717 0.009605 0.049522 -3.020363
2011-04-20 06:54:16 51°15.03 2°54.085 19.7947 0.009605 0.049524 -3.020363
2011-04-20 06:54:21 51°15.044 2°54.067 19.7557 0.009605 0.049526 -3.020363
2011-04-20 06:54:27 51°15.06 2°54.045 19.7822 0.009605 0.049528 -3.020363
2011-04-20 06:54:32 51°15.074 2°54.026 19.8403 0.009605 0.049531 -3.020363
2011-04-20 06:54:36 51°15.085 2°54.011 19.8167 0.009605 0.049531 -3.020363
2011-04-20 06:54:41 51°15.099 2°53.992 19.7204 0.009605 0.049532 -3.020363
2011-04-20 06:54:47 51°15.114 2°53.967 19.6924 0.009605 0.049535 -3.020363
2011-04-20 06:54:52 51°15.128 2°53.948 19.6666 0.009605 0.049537 -3.020363
2011-04-20 06:54:56 51°15.139 2°53.933 19.6823 0.009605 0.049538 -3.020363
2011-04-20 06:55:02 51°15.156 2°53.911 19.6544 0.009605 0.049541 -3.020363
2011-04-20 06:55:06 51°15.167 2°53.897 19.6236 0.009605 0.049541 -3.020363
2011-04-20 06:55:12 51°15.185 2°53.877 19.6491 0.009605 0.049543 -3.020363
2011-04-20 06:55:16 51°15.197 2°53.864 19.7133 0.009605 0.049544 -3.020363
2011-04-20 06:55:22 51°15.215 2°53.847 19.7555 0.009605 0.049547 -3.020363
2011-04-20 06:55:26 51°15.228 2°53.836 19.7791 0.009605 0.04955 -3.020363
2011-04-20 06:55:32 51°15.247 2°53.82 19.7667 0.009605 0.049552 -3.020363
2011-04-20 06:55:36 51°15.259 2°53.81 19.7472 0.009605 0.049552 -3.020363
2011-04-20 06:55:41 51°15.276 2°53.798 19.7809 0.009605 0.049555 -3.020363
2011-04-20 06:55:46 51°15.292 2°53.786 19.8006 0.009605 0.049557 -3.020363
2011-04-20 06:55:52 51°15.312 2°53.772 19.8019 0.009605 0.04956 -3.020363
2011-04-20 06:55:56 51°15.325 2°53.763 19.8048 0.009605 0.049563 -3.020363
2011-04-20 06:56:02 51°15.344 2°53.749 19.8128 0.009605 0.049566 -3.020363
2011-04-20 06:56:06 51°15.357 2°53.74 19.8316 0.009605 0.049566 -3.020363
2011-04-20 06:56:12 51°15.377 2°53.725 19.8608 0.009605 0.049569 -3.020363
2011-04-20 06:56:16 51°15.39 2°53.715 19.8745 0.009605 0.049572 -3.020363
2011-04-20 06:56:22 51°15.409 2°53.699 19.8319 0.009605 0.049575 -3.020363
2011-04-20 06:56:26 51°15.422 2°53.688 19.8034 0.009605 0.049578 -3.020363
2011-04-20 06:56:32 51°15.44 2°53.67 19.7307 0.009605 0.049581 -3.020363
2011-04-20 06:56:36 51°15.453 2°53.658 19.6702 0.009605 0.049581 -3.020363
2011-04-20 06:56:40 51°15.465 2°53.646 19.6413 0.009605 0.049584 -3.020363
2011-04-20 06:56:47 51°15.488 2°53.626 19.5409 0.009605 0.049587 -3.020363
2011-04-20 06:56:52 51°15.504 2°53.614 19.5307 0.009605 0.049589 -3.020363
2011-04-20 06:56:56 51°15.517 2°53.604 19.6048 0.009605 0.049592 -3.020363
2011-04-20 06:57:00 51°15.531 2°53.597 19.6048 0.009605 0.049594 -3.020363
2011-04-20 06:57:06 51°15.551 2°53.587 19.6731 0.009605 0.049594 -3.020363
2011-04-20 06:57:12 51°15.572 2°53.581 19.745 0.009605 0.049597 -3.020363
2011-04-20 06:57:16 51°15.585 2°53.576 19.767 0.009605 0.0496 -3.020363
2011-04-20 06:57:20 51°15.599 2°53.573 19.7838 0.009605 0.049604 -3.020363
2011-04-20 06:57:26 51°15.62 2°53.567 19.7537 0.009605 0.049607 -3.020363
2011-04-20 06:57:32 51°15.641 2°53.561 19.8041 0.009605 0.049611 -3.020363
2011-04-20 06:57:36 51°15.654 2°53.557 19.7718 0.009605 0.049611 -3.020363
2011-04-20 06:57:42 51°15.675 2°53.552 19.7819 0.009605 0.049615 -3.020363
2011-04-20 06:57:46 51°15.689 2°53.547 19.8095 0.009605 0.049618 -3.020363
2011-04-20 06:57:52 51°15.71 2°53.541 19.8405 0.009605 0.049622 -3.020363
2011-04-20 06:57:56 51°15.723 2°53.536 19.8188 0.009605 0.049625 -3.020363
2011-04-20 06:58:02 51°15.744 2°53.527 19.7747 0.009605 0.049629 -3.020363
2011-04-20 06:58:06 51°15.757 2°53.52 19.7343 0.009605 0.049629 -3.020363
2011-04-20 06:58:12 51°15.778 2°53.509 19.7397 0.009605 0.049632 -3.020363
2011-04-20 06:58:16 51°15.791 2°53.502 19.7171 0.009605 0.049636 -3.020363
2011-04-20 06:58:22 51°15.811 2°53.49 19.745 0.009605 0.049638 -3.020363
2011-04-20 06:58:26 51°15.825 2°53.482 19.7145 0.009605 0.049642 -3.020363
2011-04-20 06:58:32 51°15.845 2°53.471 19.7693 0.009605 0.049645 -3.020363
2011-04-20 06:58:36 51°15.858 2°53.462 19.7572 0.009605 0.049645 -3.020363
2011-04-20 06:58:42 51°15.878 2°53.449 19.8019 0.009605 0.049648 -3.020363
2011-04-20 06:58:47 51°15.894 2°53.438 19.7527 0.009605 0.049651 -3.020363
2011-04-20 06:58:52 51°15.91 2°53.426 19.7484 0.009605 0.049655 -3.020363
2011-04-20 06:58:56 51°15.923 2°53.416 19.7298 0.009605 0.049657 -3.020363
2011-04-20 06:59:00 51°15.936 2°53.407 19.7433 0.009605 0.049661 -3.020363
2011-04-20 06:59:07 51°15.959 2°53.39 19.7364 0.009605 0.049661 -3.020363
2011-04-20 06:59:12 51°15.975 2°53.378 19.7271 0.009605 0.049663 -3.020363
2011-04-20 06:59:16 51°15.988 2°53.368 19.684 0.009605 0.049666 -3.020363
2011-04-20 06:59:20 51°16.001 2°53.358 19.6332 0.009605 0.049669 -3.020363
2011-04-20 06:59:26 51°16.02 2°53.344 19.677 0.009605 0.049672 -3.020363
2011-04-20 06:59:32 51°16.04 2°53.331 19.7039 0.009605 0.049675 -3.020363
2011-04-20 06:59:36 51°16.053 2°53.322 19.7402 0.009605 0.049675 -3.020363
2011-04-20 06:59:40 51°16.067 2°53.313 19.7248 0.009605 0.049677 -3.020363
2011-04-20 06:59:46 51°16.086 2°53.301 19.7491 0.009605 0.04968 -3.020363
2011-04-20 06:59:52 51°16.106 2°53.289 19.771 0.009605 0.049683 -3.020363
2011-04-20 06:59:56 51°16.12 2°53.281 19.7803 0.009605 0.049686 -3.020363
2011-04-20 07:00:02 51°16.14 2°53.268 19.7887 0.009605 0.04969 -3.020363
2011-04-20 07:00:06 51°16.153 2°53.26 19.771 0.009605 0.04969 -3.020363
2011-04-20 07:00:12 51°16.173 2°53.246 19.7399 0.009605 0.049693 -3.020363
2011-04-20 07:00:16 51°16.186 2°53.236 19.7273 0.009605 0.049696 -3.020363
2011-04-20 07:00:22 51°16.205 2°53.221 19.7448 0.009605 0.049699 -3.020363
2011-04-20 07:00:26 51°16.218 2°53.211 19.724 0.009605 0.049702 -3.020363
2011-04-20 07:00:32 51°16.238 2°53.196 19.7046 0.009605 0.049704 -3.020363
2011-04-20 07:00:36 51°16.251 2°53.186 19.6832 0.009605 0.049704 -3.020363
2011-04-20 07:00:42 51°16.271 2°53.172 19.6964 0.009605 0.049707 -3.020363
2011-04-20 07:00:46 51°16.284 2°53.163 19.7073 0.009605 0.04971 -3.020363
2011-04-20 07:00:52 51°16.304 2°53.149 19.7357 0.009605 0.049712 -3.020363
2011-04-20 07:00:56 51°16.317 2°53.14 19.744 0.009605 0.049715 -3.020363
2011-04-20 07:01:00 51°16.331 2°53.131 19.7612 0.009605 0.049718 -3.020363
2011-04-20 07:01:07 51°16.354 2°53.116 19.7616 0.009605 0.049718 -3.020363
2011-04-20 07:01:12 51°16.371 2°53.104 19.7742 0.009605 0.049721 -3.020363
2011-04-20 07:01:16 51°16.384 2°53.096 19.7729 0.009605 0.049724 -3.020363
2011-04-20 07:01:20 51°16.397 2°53.086 19.7941 0.009605 0.049728 -3.020363
2011-04-20 07:01:27 51°16.42 2°53.07 19.791 0.009605 0.049731 -3.020363
2011-04-20 07:01:32 51°16.437 2°53.057 19.7763 0.009605 0.049734 -3.020363
2011-04-20 07:01:36 51°16.449 2°53.047 19.7528 0.009605 0.049734 -3.020363
2011-04-20 07:01:40 51°16.462 2°53.037 19.7199 0.009605 0.049737 -3.020363
2011-04-20 07:01:46 51°16.482 2°53.021 19.6996 0.009605 0.04974 -3.020363
2011-04-20 07:01:52 51°16.502 2°53.006 19.6999 0.009605 0.049743 -3.020363
2011-04-20 07:01:56 51°16.515 2°52.997 19.7356 0.009605 0.049746 -3.020363
2011-04-20 07:02:02 51°16.535 2°52.983 19.7332 0.009605 0.049749 -3.020363
2011-04-20 07:02:06 51°16.548 2°52.974 19.725 0.009605 0.049749 -3.020363
2011-04-20 07:02:12 51°16.568 2°52.96 19.7337 0.009605 0.049752 -3.020363
2011-04-20 07:02:16 51°16.581 2°52.951 19.748 0.009605 0.049755 -3.020363
2011-04-20 07:02:22 51°16.602 2°52.938 19.7734 0.009605 0.049758 -3.020363
2011-04-20 07:02:26 51°16.615 2°52.929 19.7968 0.009605 0.049761 -3.020363
2011-04-20 07:02:32 51°16.635 2°52.916 19.8036 0.009605 0.049764 -3.020363
2011-04-20 07:02:36 51°16.648 2°52.907 19.8081 0.009605 0.049764 -3.020363
2011-04-20 07:02:42 51°16.667 2°52.893 19.7723 0.009605 0.049767 -3.020363
2011-04-20 07:02:46 51°16.68 2°52.882 19.7744 0.009605 0.049771 -3.020363
2011-04-20 07:02:52 51°16.699 2°52.866 19.7763 0.009605 0.049774 -3.020363
2011-04-20 07:02:56 51°16.712 2°52.855 19.7379 0.009605 0.049777 -3.020363
2011-04-20 07:03:02 51°16.731 2°52.839 19.7289 0.009605 0.049779 -3.020363
2011-04-20 07:03:06 51°16.743 2°52.828 19.7261 0.009605 0.049779 -3.020363
2011-04-20 07:03:12 51°16.762 2°52.811 19.7267 0.009605 0.049782 -3.020363
2011-04-20 07:03:16 51°16.775 2°52.8 19.7399 0.009605 0.049785 -3.020363
2011-04-20 07:03:20 51°16.787 2°52.79 19.6868 0.009605 0.049788 -3.020363
2011-04-20 07:03:27 51°16.808 2°52.77 19.6392 0.009605 0.049791 -3.020363
2011-04-20 07:03:32 51°16.824 2°52.757 19.6407 0.009605 0.049793 -3.020363
2011-04-20 07:03:36 51°16.836 2°52.747 19.6581 0.009605 0.049793 -3.020363
2011-04-20 07:03:40 51°16.849 2°52.738 19.7124 0.009605 0.049794 -3.020363
2011-04-20 07:03:47 51°16.871 2°52.722 19.7133 0.009605 0.049796 -3.020363
2011-04-20 07:03:52 51°16.887 2°52.712 19.7267 0.009605 0.049799 -3.020363
2011-04-20 07:03:56 51°16.9 2°52.703 19.7271 0.009605 0.049802 -3.020363
2011-04-20 07:04:01 51°16.916 2°52.692 19.7269 0.009605 0.049805 -3.020363
2011-04-20 07:04:06 51°16.932 2°52.682 19.6841 0.009605 0.049805 -3.020363
2011-04-20 07:04:12 51°16.952 2°52.67 19.7342 0.009605 0.049808 -3.020363
2011-04-20 07:04:16 51°16.965 2°52.661 19.7604 0.009605 0.049812 -3.020363
2011-04-20 07:04:21 51°16.982 2°52.651 19.7661 0.009605 0.049816 -3.020363
2011-04-20 07:04:26 51°16.998 2°52.64 19.7385 0.009605 0.049819 -3.020363
2011-04-20 07:04:31 51°17.014 2°52.628 19.7691 0.009605 0.049823 -3.020363
2011-04-20 07:04:36 51°17.03 2°52.617 19.7989 0.009605 0.049823 -3.020363
2011-04-20 07:04:41 51°17.046 2°52.604 19.7349 0.009605 0.049827 -3.020363
2011-04-20 07:04:47 51°17.065 2°52.588 19.7567 0.009605 0.049831 -3.020363
2011-04-20 07:04:52 51°17.08 2°52.575 19.7362 0.009503 0.04938 -3.020363
2011-04-20 07:04:56 51°17.093 2°52.563 19.7171 0.009503 0.049383 -3.020363
2011-04-20 07:05:02 51°17.111 2°52.546 19.7129 0.009503 0.049387 -3.020363
2011-04-20 07:05:07 51°17.126 2°52.531 19.6728 0.009503 0.049387 -3.020363
2011-04-20 07:05:11 51°17.138 2°52.518 19.6672 0.009503 0.04939 -3.020363
2011-04-20 07:05:16 51°17.153 2°52.504 19.6769 0.009503 0.049393 -3.020363
2011-04-20 07:05:22 51°17.172 2°52.487 19.6418 0.009503 0.049396 -3.020363
2011-04-20 07:05:27 51°17.187 2°52.473 19.5904 0.009503 0.049398 -3.020363
2011-04-20 07:05:32 51°17.203 2°52.46 19.6458 0.009503 0.049401 -3.020363
2011-04-20 07:05:36 51°17.216 2°52.45 19.7005 0.009503 0.049401 -3.020363
2011-04-20 07:05:41 51°17.232 2°52.438 19.7243 0.009503 0.049402 -3.020363
2011-04-20 07:05:47 51°17.252 2°52.424 19.7266 0.009503 0.049405 -3.020363
2011-04-20 07:05:52 51°17.268 2°52.413 19.7434 0.009503 0.049408 -3.020363
2011-04-20 07:05:56 51°17.281 2°52.404 19.7455 0.009503 0.049413 -3.020363
2011-04-20 07:06:01 51°17.297 2°52.392 19.7538 0.009503 0.049417 -3.020363
2011-04-20 07:06:07 51°17.317 2°52.379 19.7856 0.009503 0.049417 -3.020363
2011-04-20 07:06:12 51°17.333 2°52.367 19.7835 0.009503 0.049421 -3.020363
2011-04-20 07:06:16 51°17.346 2°52.357 19.757 0.009503 0.049426 -3.020363
2011-04-20 07:06:21 51°17.362 2°52.343 19.7561 0.009503 0.049431 -3.020363
2011-04-20 07:06:27 51°17.381 2°52.327 19.7454 0.009503 0.049435 -3.020363
2011-04-20 07:06:31 51°17.394 2°52.315 19.698 0.009503 0.049439 -3.020363
2011-04-20 07:06:36 51°17.409 2°52.301 19.6823 0.009503 0.049439 -3.020363
2011-04-20 07:06:42 51°17.428 2°52.283 19.717 0.009503 0.049443 -3.020363
2011-04-20 07:06:46 51°17.44 2°52.272 19.6334 0.009503 0.049446 -3.020363
2011-04-20 07:06:51 51°17.456 2°52.257 19.6321 0.009503 0.049449 -3.020363
2011-04-20 07:06:56 51°17.472 2°52.243 19.649 0.009503 0.049452 -3.020363
2011-04-20 07:07:02 51°17.491 2°52.228 19.6741 0.009503 0.049454 -3.020363
2011-04-20 07:07:06 51°17.504 2°52.218 19.6838 0.009503 0.049454 -3.020363
2011-04-20 07:07:12 51°17.524 2°52.203 19.7139 0.009503 0.049457 -3.020363
2011-04-20 07:07:16 51°17.537 2°52.194 19.7249 0.009503 0.04946 -3.020363
2011-04-20 07:07:22 51°17.557 2°52.18 19.7217 0.009503 0.049464 -3.020363
2011-04-20 07:07:26 51°17.57 2°52.171 19.7271 0.009503 0.049468 -3.020363
2011-04-20 07:07:32 51°17.59 2°52.157 19.7289 0.009503 0.049472 -3.020363
2011-04-20 07:07:36 51°17.603 2°52.148 19.7281 0.009503 0.049472 -3.020363
2011-04-20 07:07:42 51°17.622 2°52.134 19.7393 0.009503 0.049475 -3.020363
2011-04-20 07:07:46 51°17.635 2°52.125 19.7327 0.009503 0.04948 -3.020363
2011-04-20 07:07:52 51°17.655 2°52.11 19.7468 0.009503 0.049483 -3.020363
2011-04-20 07:07:56 51°17.668 2°52.101 19.7597 0.009503 0.049487 -3.020363
2011-04-20 07:08:01 51°17.684 2°52.089 19.7612 0.009503 0.049491 -3.020363
2011-04-20 07:08:07 51°17.703 2°52.074 19.77 0.009503 0.049491 -3.020363
2011-04-20 07:08:12 51°17.719 2°52.062 19.7493 0.009503 0.049495 -3.020363
2011-04-20 07:08:16 51°17.732 2°52.051 19.7443 0.009503 0.049499 -3.020363
2011-04-20 07:08:21 51°17.748 2°52.038 19.7402 0.009503 0.049502 -3.020363
2011-04-20 07:08:26 51°17.764 2°52.024 19.7263 0.009503 0.049506 -3.020363
2011-04-20 07:08:32 51°17.782 2°52.008 19.7128 0.009503 0.049509 -3.020363
2011-04-20 07:08:36 51°17.795 2°51.997 19.6946 0.009503 0.049509 -3.020363
2011-04-20 07:08:41 51°17.81 2°51.983 19.6857 0.009503 0.049512 -3.020363
2011-04-20 07:08:46 51°17.826 2°51.971 19.6491 0.009503 0.049515 -3.020363
2011-04-20 07:08:51 51°17.842 2°51.958 19.6648 0.009503 0.049518 -3.020363
2011-04-20 07:08:56 51°17.858 2°51.945 19.6717 0.009503 0.049521 -3.020363
2011-04-20 07:09:01 51°17.874 2°51.933 19.7021 0.009503 0.049523 -3.020363
2011-04-20 07:09:07 51°17.893 2°51.919 19.6859 0.009503 0.049523 -3.020363
2011-04-20 07:09:11 51°17.906 2°51.91 19.732 0.009503 0.049526 -3.020363
2011-04-20 07:09:16 51°17.923 2°51.899 19.7411 0.009503 0.049529 -3.020363
2011-04-20 07:09:22 51°17.942 2°51.885 19.7608 0.009503 0.049533 -3.020363
2011-04-20 07:09:26 51°17.955 2°51.876 19.744 0.009503 0.049536 -3.020363
2011-04-20 07:09:31 51°17.972 2°51.865 19.7605 0.009503 0.049541 -3.020363
2011-04-20 07:09:36 51°17.988 2°51.853 19.7647 0.009503 0.049541 -3.020363
2011-04-20 07:09:42 51°18.008 2°51.839 19.7476 0.009503 0.049545 -3.020363
2011-04-20 07:09:46 51°18.021 2°51.829 19.7697 0.009503 0.049549 -3.020363
2011-04-20 07:09:52 51°18.04 2°51.813 19.7845 0.009503 0.049553 -3.020363
2011-04-20 07:09:56 51°18.053 2°51.803 19.7749 0.009503 0.049558 -3.020363
2011-04-20 07:10:01 51°18.068 2°51.79 19.7362 0.009503 0.049562 -3.020363
2011-04-20 07:10:07 51°18.087 2°51.773 19.7236 0.009503 0.049562 -3.020363
2011-04-20 07:10:12 51°18.103 2°51.758 19.7205 0.009503 0.049566 -3.020363
2011-04-20 07:10:16 51°18.116 2°51.747 19.6814 0.009503 0.04957 -3.020363
2011-04-20 07:10:20 51°18.129 2°51.736 19.6844 0.009503 0.049574 -3.020363
2011-04-20 07:10:27 51°18.151 2°51.717 19.6625 0.009503 0.049577 -3.020363
2011-04-20 07:10:32 51°18.167 2°51.703 19.6626 0.009503 0.04958 -3.020363
2011-04-20 07:10:36 51°18.18 2°51.692 19.693 0.009503 0.04958 -3.020363
2011-04-20 07:10:41 51°18.196 2°51.679 19.6907 0.009503 0.049582 -3.020363
2011-04-20 07:10:47 51°18.215 2°51.664 19.7263 0.009503 0.049584 -3.020363
2011-04-20 07:10:52 51°18.232 2°51.652 19.7279 0.009503 0.049587 -3.020363
2011-04-20 07:10:56 51°18.245 2°51.642 19.722 0.009503 0.049591 -3.020363
2011-04-20 07:11:01 51°18.261 2°51.63 19.7396 0.009503 0.049595 -3.020363
2011-04-20 07:11:06 51°18.278 2°51.619 19.7472 0.009503 0.049595 -3.020363
2011-04-20 07:11:11 51°18.294 2°51.606 19.7281 0.009503 0.049598 -3.020363
2011-04-20 07:11:16 51°18.311 2°51.594 19.7316 0.009503 0.049602 -3.020363
2011-04-20 07:11:21 51°18.327 2°51.581 19.7364 0.009503 0.049606 -3.020363
2011-04-20 07:11:26 51°18.343 2°51.568 19.7295 0.009503 0.049611 -3.020363
2011-04-20 07:11:32 51°18.363 2°51.552 19.7265 0.009503 0.049614 -3.020363
2011-04-20 07:11:36 51°18.375 2°51.542 19.7256 0.009503 0.049614 -3.020363
2011-04-20 07:11:41 51°18.391 2°51.528 19.7071 0.009503 0.049618 -3.020363
2011-04-20 07:11:47 51°18.41 2°51.511 19.6864 0.009503 0.049622 -3.020363
2011-04-20 07:11:52 51°18.426 2°51.498 19.6926 0.009503 0.049626 -3.020363
2011-04-20 07:11:56 51°18.439 2°51.487 19.6779 0.009503 0.049629 -3.020363
2011-04-20 07:12:02 51°18.458 2°51.471 19.686 0.009503 0.049632 -3.020363
2011-04-20 07:12:07 51°18.474 2°51.458 19.6994 0.009503 0.049632 -3.020363
2011-04-20 07:12:11 51°18.488 2°51.448 19.7228 0.009503 0.049634 -3.020363
2011-04-20 07:12:16 51°18.504 2°51.436 19.7456 0.009503 0.049637 -3.020363
2011-04-20 07:12:21 51°18.52 2°51.423 19.7437 0.009503 0.049641 -3.020363
2011-04-20 07:12:26 51°18.537 2°51.411 19.7464 0.009503 0.049644 -3.020363
2011-04-20 07:12:32 51°18.556 2°51.396 19.7565 0.009503 0.049648 -3.020363
2011-04-20 07:12:36 51°18.569 2°51.386 19.7149 0.009503 0.049648 -3.020363
2011-04-20 07:12:41 51°18.585 2°51.373 19.708 0.009503 0.049652 -3.020363
2011-04-20 07:12:46 51°18.602 2°51.36 19.7314 0.009503 0.049655 -3.020363
2011-04-20 07:12:52 51°18.621 2°51.345 19.71 0.009503 0.049659 -3.020363
2011-04-20 07:12:56 51°18.634 2°51.335 19.7291 0.009503 0.049662 -3.020363
2011-04-20 07:13:01 51°18.65 2°51.323 19.7052 0.009503 0.049665 -3.020363
2011-04-20 07:13:06 51°18.667 2°51.31 19.7081 0.009503 0.049665 -3.020363
2011-04-20 07:13:12 51°18.686 2°51.295 19.7239 0.009503 0.049668 -3.020363
2011-04-20 07:13:16 51°18.699 2°51.285 19.7292 0.009503 0.049672 -3.020363
2011-04-20 07:13:20 51°18.712 2°51.275 19.7323 0.009503 0.049675 -3.020363
2011-04-20 07:13:26 51°18.732 2°51.259 19.7333 0.009503 0.049679 -3.020363
2011-04-20 07:13:32 51°18.752 2°51.244 19.7202 0.009503 0.049682 -3.020363
2011-04-20 07:13:36 51°18.764 2°51.233 19.7242 0.009503 0.049682 -3.020363
2011-04-20 07:13:42 51°18.784 2°51.217 19.7368 0.009503 0.049686 -3.020363
2011-04-20 07:13:46 51°18.797 2°51.206 19.7449 0.009503 0.049689 -3.020363
2011-04-20 07:13:52 51°18.816 2°51.19 19.7373 0.009503 0.049693 -3.020363
2011-04-20 07:13:56 51°18.829 2°51.179 19.6795 0.009503 0.049696 -3.020363
2011-04-20 07:14:02 51°18.848 2°51.162 19.7125 0.009503 0.049699 -3.020363
2011-04-20 07:14:06 51°18.861 2°51.151 19.7167 0.009503 0.049699 -3.020363
2011-04-20 07:14:12 51°18.88 2°51.135 19.7209 0.009503 0.049702 -3.020363
2011-04-20 07:14:16 51°18.893 2°51.124 19.7279 0.009503 0.049705 -3.020363
2011-04-20 07:14:22 51°18.913 2°51.109 19.7417 0.009503 0.049707 -3.020363
2011-04-20 07:14:27 51°18.929 2°51.095 19.7399 0.009503 0.049711 -3.020363
2011-04-20 07:14:32 51°18.945 2°51.082 19.7459 0.009503 0.049715 -3.020363
2011-04-20 07:14:36 51°18.958 2°51.071 19.754 0.009503 0.049715 -3.020363
2011-04-20 07:14:41 51°18.974 2°51.058 19.7475 0.009503 0.049718 -3.020363
2011-04-20 07:14:47 51°18.994 2°51.041 19.7388 0.009503 0.049721 -3.020363
2011-04-20 07:14:52 51°19.01 2°51.028 19.7116 0.009503 0.049725 -3.020363
2011-04-20 07:14:56 51°19.023 2°51.017 19.719 0.009503 0.049728 -3.020363
2011-04-20 07:15:00 51°19.036 2°51.006 19.6957 0.009503 0.049731 -3.020363
2011-04-20 07:15:06 51°19.055 2°50.99 19.7355 0.009503 0.049731 -3.020363
2011-04-20 07:15:12 51°19.075 2°50.974 19.7106 0.009503 0.049733 -3.020363
2011-04-20 07:15:16 51°19.088 2°50.963 19.7468 0.009503 0.049736 -3.020363
2011-04-20 07:15:20 51°19.101 2°50.952 19.685 0.009503 0.049738 -3.020363
2011-04-20 07:15:26 51°19.12 2°50.936 19.7286 0.009503 0.049742 -3.020363
2011-04-20 07:15:32 51°19.14 2°50.92 19.7056 0.009503 0.049745 -3.020363
2011-04-20 07:15:36 51°19.153 2°50.909 19.7102 0.009503 0.049745 -3.020363
2011-04-20 07:15:42 51°19.172 2°50.892 19.7031 0.009503 0.049748 -3.020363
2011-04-20 07:15:46 51°19.185 2°50.881 19.7236 0.009503 0.04975 -3.020363
2011-04-20 07:15:52 51°19.205 2°50.865 19.7179 0.009503 0.049753 -3.020363
2011-04-20 07:15:56 51°19.218 2°50.854 19.7236 0.009503 0.049756 -3.020363
2011-04-20 07:16:02 51°19.237 2°50.838 19.7123 0.009503 0.049758 -3.020363
2011-04-20 07:16:06 51°19.251 2°50.827 19.7216 0.009503 0.049758 -3.020363
2011-04-20 07:16:12 51°19.27 2°50.811 19.7037 0.009503 0.049761 -3.020363
2011-04-20 07:16:16 51°19.283 2°50.801 19.7223 0.009503 0.049764 -3.020363
2011-04-20 07:16:22 51°19.303 2°50.784 19.7236 0.009503 0.049766 -3.020363
2011-04-20 07:16:26 51°19.316 2°50.774 19.7318 0.0094 0.049307 -3.020363
2011-04-20 07:16:32 51°19.335 2°50.758 19.7393 0.0094 0.049309 -3.020363
2011-04-20 07:16:36 51°19.349 2°50.748 19.7392 0.0094 0.049309 -3.020363
2011-04-20 07:16:40 51°19.362 2°50.737 19.7025 0.0094 0.049312 -3.020363
2011-04-20 07:16:47 51°19.385 2°50.718 19.6782 0.0094 0.049316 -3.020363
2011-04-20 07:16:52 51°19.401 2°50.705 19.6779 0.0094 0.049318 -3.020363
2011-04-20 07:16:56 51°19.414 2°50.695 19.692 0.0094 0.04932 -3.020363
2011-04-20 07:17:00 51°19.427 2°50.684 19.7075 0.0094 0.049321 -3.020363
2011-04-20 07:17:07 51°19.45 2°50.667 19.739 0.0094 0.049321 -3.020363
2011-04-20 07:17:12 51°19.466 2°50.655 19.7451 0.0094 0.049323 -3.020363
2011-04-20 07:17:16 51°19.479 2°50.645 19.7435 0.0094 0.049325 -3.020363
2011-04-20 07:17:20 51°19.492 2°50.635 19.7402 0.0094 0.049328 -3.020363
2011-04-20 07:17:26 51°19.512 2°50.619 19.7494 0.0094 0.049331 -3.020363
2011-04-20 07:17:32 51°19.532 2°50.604 19.7104 0.0094 0.049333 -3.020363
2011-04-20 07:17:36 51°19.545 2°50.594 19.7194 0.0094 0.049333 -3.020363
2011-04-20 07:17:42 51°19.565 2°50.579 19.7271 0.0094 0.049336 -3.020363
2011-04-20 07:17:46 51°19.578 2°50.569 19.7217 0.0094 0.049337 -3.020363
2011-04-20 07:17:52 51°19.598 2°50.555 19.7417 0.0094 0.049337 -3.020363
2011-04-20 07:17:56 51°19.611 2°50.545 19.7429 0.0094 0.049339 -3.020363
2011-04-20 07:18:01 51°19.628 2°50.533 19.7505 0.0094 0.04934 -3.020363
2011-04-20 07:18:06 51°19.644 2°50.521 19.7548 0.0094 0.04934 -3.020363
2011-04-20 07:18:12 51°19.664 2°50.506 19.7669 0.0094 0.049343 -3.020363
2011-04-20 07:18:16 51°19.677 2°50.496 19.77 0.0094 0.049346 -3.020363
2011-04-20 07:18:22 51°19.697 2°50.48 19.7433 0.0094 0.049349 -3.020363
2011-04-20 07:18:26 51°19.71 2°50.469 19.7366 0.0094 0.049354 -3.020363
2011-04-20 07:18:32 51°19.73 2°50.453 19.7358 0.0094 0.049357 -3.020363
2011-04-20 07:18:36 51°19.743 2°50.442 19.6966 0.0094 0.049357 -3.020363
2011-04-20 07:18:42 51°19.763 2°50.426 19.7055 0.0094 0.04936 -3.020363
2011-04-20 07:18:46 51°19.776 2°50.416 19.7051 0.0094 0.049362 -3.020363
2011-04-20 07:18:52 51°19.796 2°50.4 19.724 0.0094 0.049363 -3.020363
2011-04-20 07:18:56 51°19.809 2°50.391 19.7406 0.0094 0.049363 -3.020363
2011-04-20 07:19:00 51°19.823 2°50.38 19.7703 0.0094 0.049364 -3.020363
2011-04-20 07:19:07 51°19.846 2°50.363 19.7335 0.0094 0.049364 -3.020363
2011-04-20 07:19:12 51°19.863 2°50.351 19.7634 0.0094 0.049365 -3.020363
2011-04-20 07:19:16 51°19.876 2°50.341 19.756 0.0094 0.049366 -3.020363
2011-04-20 07:19:20 51°19.889 2°50.331 19.7436 0.0094 0.049367 -3.020363
2011-04-20 07:19:27 51°19.912 2°50.313 19.7398 0.0094 0.049368 -3.020363
2011-04-20 07:19:32 51°19.929 2°50.3 19.7595 0.0094 0.049371 -3.020363
2011-04-20 07:19:36 51°19.942 2°50.29 19.7532 0.0094 0.049371 -3.020363
2011-04-20 07:19:40 51°19.956 2°50.28 19.7378 0.0094 0.049372 -3.020363
2011-04-20 07:19:46 51°19.975 2°50.265 19.7399 0.0094 0.049373 -3.020363
2011-04-20 07:19:52 51°19.995 2°50.249 19.7342 0.0094 0.049373 -3.020363
2011-04-20 07:19:56 51°20.009 2°50.239 19.7381 0.0094 0.049373 -3.020363
2011-04-20 07:20:02 51°20.029 2°50.224 19.7293 0.0094 0.049372 -3.020363
2011-04-20 07:20:06 51°20.042 2°50.214 19.7505 0.0094 0.049372 -3.020363
2011-04-20 07:20:12 51°20.062 2°50.2 19.7654 0.0094 0.049373 -3.020363
2011-04-20 07:20:16 51°20.075 2°50.19 19.7638 0.0094 0.049375 -3.020363
2011-04-20 07:20:22 51°20.095 2°50.175 19.7696 0.0094 0.049377 -3.020363
2011-04-20 07:20:26 51°20.109 2°50.165 19.7537 0.0094 0.04938 -3.020363
2011-04-20 07:20:32 51°20.129 2°50.149 19.7505 0.0094 0.049383 -3.020363
2011-04-20 07:20:36 51°20.142 2°50.139 19.754 0.0094 0.049383 -3.020363
2011-04-20 07:20:42 51°20.162 2°50.124 19.7437 0.0094 0.049386 -3.020363
2011-04-20 07:20:46 51°20.175 2°50.113 19.7505 0.0094 0.049388 -3.020363
2011-04-20 07:20:52 51°20.195 2°50.098 19.7481 0.0094 0.04939 -3.020363
2011-04-20 07:20:56 51°20.208 2°50.087 19.7472 0.0094 0.049392 -3.020363
2011-04-20 07:21:02 51°20.228 2°50.072 19.72 0.0094 0.049393 -3.020363
2011-04-20 07:21:06 51°20.241 2°50.062 19.7466 0.0094 0.049393 -3.020363
2011-04-20 07:21:12 51°20.261 2°50.046 19.7446 0.0094 0.049394 -3.020363
2011-04-20 07:21:16 51°20.274 2°50.036 19.7222 0.0094 0.049396 -3.020363
2011-04-20 07:21:20 51°20.288 2°50.027 19.7353 0.0094 0.049397 -3.020363
2011-04-20 07:21:27 51°20.311 2°50.011 19.7574 0.0094 0.049397 -3.020363
2011-04-20 07:21:32 51°20.328 2°50 19.7765 0.0094 0.049398 -3.020363
2011-04-20 07:21:36 51°20.341 2°49.991 19.7901 0.0094 0.049398 -3.020363
2011-04-20 07:21:40 51°20.355 2°49.982 19.7511 0.0094 0.049403 -3.020363
2011-04-20 07:21:47 51°20.378 2°49.965 19.7683 0.0094 0.049409 -3.020363
2011-04-20 07:21:52 51°20.394 2°49.953 19.7699 0.0094 0.049413 -3.020363
2011-04-20 07:21:56 51°20.408 2°49.943 19.7852 0.0094 0.049416 -3.020363
2011-04-20 07:22:00 51°20.421 2°49.933 19.7625 0.0094 0.049419 -3.020363
2011-04-20 07:22:06 51°20.44 2°49.917 19.7202 0.0094 0.049419 -3.020363
2011-04-20 07:22:12 51°20.46 2°49.902 19.7224 0.0094 0.04942 -3.020363
2011-04-20 07:22:16 51°20.474 2°49.892 19.7415 0.0094 0.04942 -3.020363
2011-04-20 07:22:22 51°20.493 2°49.876 19.742 0.0094 0.04942 -3.020363
2011-04-20 07:22:26 51°20.507 2°49.866 19.7299 0.0094 0.049422 -3.020363
2011-04-20 07:22:32 51°20.527 2°49.851 19.7447 0.0094 0.049424 -3.020363
2011-04-20 07:22:36 51°20.54 2°49.841 19.744 0.0094 0.049424 -3.020363
2011-04-20 07:22:42 51°20.56 2°49.827 19.7499 0.0094 0.049428 -3.020363
2011-04-20 07:22:46 51°20.574 2°49.816 19.7846 0.0094 0.04943 -3.020363
2011-04-20 07:22:52 51°20.594 2°49.802 19.7681 0.0094 0.049434 -3.020363
2011-04-20 07:22:56 51°20.607 2°49.791 19.7554 0.0094 0.049438 -3.020363
2011-04-20 07:23:02 51°20.627 2°49.776 19.7241 0.0094 0.049441 -3.020363
2011-04-20 07:23:06 51°20.64 2°49.766 19.7299 0.0094 0.049441 -3.020363
2011-04-20 07:23:12 51°20.661 2°49.751 19.7538 0.0094 0.049442 -3.020363
2011-04-20 07:23:16 51°20.674 2°49.741 19.7549 0.0094 0.049445 -3.020363
2011-04-20 07:23:20 51°20.688 2°49.731 19.7562 0.0094 0.049447 -3.020363
2011-04-20 07:23:27 51°20.711 2°49.714 19.7687 0.0094 0.04945 -3.020363
2011-04-20 07:23:32 51°20.727 2°49.702 19.7836 0.0094 0.049452 -3.020363
2011-04-20 07:23:36 51°20.741 2°49.692 19.7826 0.0094 0.049452 -3.020363
2011-04-20 07:23:40 51°20.754 2°49.682 19.7731 0.0094 0.049457 -3.020363
2011-04-20 07:23:47 51°20.777 2°49.664 19.7733 0.0094 0.04946 -3.020363
2011-04-20 07:23:52 51°20.794 2°49.651 19.7776 0.0094 0.049463 -3.020363
2011-04-20 07:23:56 51°20.807 2°49.641 19.7661 0.0094 0.049466 -3.020363
2011-04-20 07:24:00 51°20.82 2°49.63 19.7591 0.0094 0.049468 -3.020363
2011-04-20 07:24:06 51°20.84 2°49.615 19.7395 0.0094 0.049468 -3.020363
2011-04-20 07:24:12 51°20.86 2°49.599 19.7391 0.0094 0.04947 -3.020363
2011-04-20 07:24:16 51°20.873 2°49.589 19.7586 0.0094 0.04947 -3.020363
2011-04-20 07:24:20 51°20.887 2°49.579 19.7597 0.0094 0.049472 -3.020363
2011-04-20 07:24:26 51°20.907 2°49.564 19.7858 0.0094 0.049475 -3.020363
2011-04-20 07:24:32 51°20.927 2°49.549 19.7916 0.0094 0.049479 -3.020363
2011-04-20 07:24:36 51°20.94 2°49.539 19.7987 0.0094 0.049479 -3.020363
2011-04-20 07:24:42 51°20.96 2°49.523 19.7885 0.0094 0.049484 -3.020363
2011-04-20 07:24:46 51°20.973 2°49.513 19.7708 0.0094 0.049487 -3.020363
2011-04-20 07:24:52 51°20.993 2°49.497 19.7673 0.0094 0.049489 -3.020363
2011-04-20 07:24:56 51°21.006 2°49.487 19.7513 0.0094 0.049491 -3.020363
2011-04-20 07:25:02 51°21.026 2°49.471 19.7699 0.0094 0.049492 -3.020363
2011-04-20 07:25:06 51°21.039 2°49.461 19.7705 0.0094 0.049492 -3.020363
2011-04-20 07:25:12 51°21.059 2°49.445 19.7869 0.0094 0.049494 -3.020363
2011-04-20 07:25:16 51°21.072 2°49.435 19.7733 0.0094 0.049497 -3.020363
2011-04-20 07:25:22 51°21.092 2°49.419 19.7971 0.0094 0.049501 -3.020363
2011-04-20 07:25:26 51°21.105 2°49.409 19.7411 0.0094 0.049506 -3.020363
2011-04-20 07:25:32 51°21.125 2°49.393 19.7802 0.0094 0.049509 -3.020363
2011-04-20 07:25:36 51°21.138 2°49.382 19.7557 0.0094 0.049509 -3.020363
2011-04-20 07:25:40 51°21.151 2°49.371 19.7632 0.0094 0.049512 -3.020363
2011-04-20 07:25:47 51°21.174 2°49.353 19.7448 0.0094 0.049514 -3.020363
2011-04-20 07:25:52 51°21.191 2°49.341 19.761 0.0094 0.049518 -3.020363
2011-04-20 07:25:56 51°21.204 2°49.331 19.7657 0.0094 0.049521 -3.020363
2011-04-20 07:26:00 51°21.217 2°49.321 19.7716 0.0094 0.049524 -3.020363
2011-04-20 07:26:07 51°21.24 2°49.303 19.7487 0.0094 0.049524 -3.020363
2011-04-20 07:26:12 51°21.257 2°49.291 19.7746 0.0094 0.049528 -3.020363
2011-04-20 07:26:16 51°21.27 2°49.28 19.7668 0.0094 0.04953 -3.020363
2011-04-20 07:26:20 51°21.284 2°49.27 19.7396 0.0094 0.049532 -3.020363
2011-04-20 07:26:26 51°21.304 2°49.254 19.752 0.0094 0.049534 -3.020363
2011-04-20 07:26:32 51°21.324 2°49.239 19.7643 0.0094 0.049536 -3.020363
2011-04-20 07:26:36 51°21.337 2°49.229 19.753 0.0094 0.049536 -3.020363
2011-04-20 07:26:42 51°21.357 2°49.213 19.755 0.0094 0.049539 -3.020363
2011-04-20 07:26:46 51°21.37 2°49.203 19.7666 0.0094 0.04954 -3.020363
2011-04-20 07:26:52 51°21.39 2°49.188 19.7744 0.0094 0.049542 -3.020363
2011-04-20 07:26:56 51°21.404 2°49.178 19.7715 0.0094 0.049544 -3.020363
2011-04-20 07:27:02 51°21.424 2°49.163 19.7977 0.0094 0.049547 -3.020363
2011-04-20 07:27:06 51°21.437 2°49.153 19.7585 0.0094 0.049547 -3.020363
2011-04-20 07:27:12 51°21.457 2°49.137 19.7778 0.0094 0.04955 -3.020363
2011-04-20 07:27:16 51°21.471 2°49.127 19.7616 0.0094 0.049553 -3.020363
2011-04-20 07:27:22 51°21.491 2°49.111 19.7777 0.0094 0.049555 -3.020363
2011-04-20 07:27:26 51°21.504 2°49.101 19.7703 0.0094 0.049558 -3.020363
2011-04-20 07:27:32 51°21.524 2°49.085 19.7596 0.0094 0.049559 -3.020363
2011-04-20 07:27:36 51°21.537 2°49.075 19.7601 0.0094 0.049559 -3.020363
2011-04-20 07:27:42 51°21.557 2°49.059 19.7567 0.0094 0.049561 -3.020363
2011-04-20 07:27:46 51°21.571 2°49.049 19.7698 0.009297 0.049098 -3.020363
2011-04-20 07:27:52 51°21.591 2°49.034 19.7844 0.0094 0.049567 -3.020363
2011-04-20 07:27:56 51°21.604 2°49.024 19.763 0.0094 0.049571 -3.020363
2011-04-20 07:28:00 51°21.618 2°49.014 19.7641 0.009297 0.049108 -3.020363
2011-04-20 07:28:07 51°21.641 2°48.996 19.7809 0.009297 0.049108 -3.020363
2011-04-20 07:28:12 51°21.658 2°48.983 19.7736 0.009297 0.049111 -3.020363
2011-04-20 07:28:16 51°21.672 2°48.973 19.7579 0.009297 0.049114 -3.020363
2011-04-20 07:28:20 51°21.685 2°48.962 19.773 0.009297 0.049116 -3.020363
2011-04-20 07:28:26 51°21.705 2°48.947 19.7575 0.009297 0.049119 -3.020363
2011-04-20 07:28:32 51°21.725 2°48.931 19.7953 0.009297 0.049122 -3.020363
2011-04-20 07:28:36 51°21.739 2°48.921 19.773 0.009297 0.049122 -3.020363
2011-04-20 07:28:40 51°21.752 2°48.91 19.7648 0.009297 0.049126 -3.020363
2011-04-20 07:28:46 51°21.773 2°48.894 19.7433 0.009297 0.04913 -3.020363
2011-04-20 07:28:52 51°21.793 2°48.879 19.7632 0.009297 0.049133 -3.020363
2011-04-20 07:28:56 51°21.806 2°48.869 19.7628 0.009297 0.049135 -3.020363
2011-04-20 07:29:02 51°21.827 2°48.853 19.7712 0.009297 0.049137 -3.020363
2011-04-20 07:29:06 51°21.84 2°48.843 19.7804 0.009297 0.049137 -3.020363
2011-04-20 07:29:12 51°21.861 2°48.829 19.7831 0.009297 0.049139 -3.020363
2011-04-20 07:29:16 51°21.874 2°48.819 19.8068 0.009297 0.049143 -3.020363
2011-04-20 07:29:22 51°21.894 2°48.804 19.7813 0.009297 0.049147 -3.020363
2011-04-20 07:29:26 51°21.908 2°48.793 19.7954 0.009297 0.049152 -3.020363
2011-04-20 07:29:32 51°21.928 2°48.778 19.7642 0.009297 0.049156 -3.020363
2011-04-20 07:29:36 51°21.942 2°48.768 19.7611 0.009297 0.049156 -3.020363
2011-04-20 07:29:42 51°21.962 2°48.752 19.7552 0.009297 0.049159 -3.020363
2011-04-20 07:29:46 51°21.975 2°48.741 19.762 0.009297 0.049163 -3.020363
2011-04-20 07:29:52 51°21.996 2°48.725 19.7483 0.009297 0.049165 -3.020363
2011-04-20 07:29:56 51°22.009 2°48.715 19.768 0.009297 0.049166 -3.020363
2011-04-20 07:30:02 51°22.03 2°48.701 19.7873 0.009297 0.049168 -3.020363
2011-04-20 07:30:07 51°22.047 2°48.688 19.7904 0.009297 0.049168 -3.020363
2011-04-20 07:30:12 51°22.064 2°48.676 19.8041 0.009297 0.049171 -3.020363
2011-04-20 07:30:16 51°22.077 2°48.666 19.7945 0.009297 0.049176 -3.020363
2011-04-20 07:30:20 51°22.091 2°48.656 19.8084 0.009297 0.049181 -3.020363
2011-04-20 07:30:27 51°22.115 2°48.638 19.7412 0.009297 0.049185 -3.020363
2011-04-20 07:30:32 51°22.132 2°48.626 19.7417 0.009297 0.049189 -3.020363
2011-04-20 07:30:36 51°22.145 2°48.615 19.7502 0.009297 0.049189 -3.020363
2011-04-20 07:30:40 51°22.159 2°48.605 19.7845 0.009297 0.049189 -3.020363
2011-04-20 07:30:46 51°22.179 2°48.59 19.7657 0.009297 0.049191 -3.020363
2011-04-20 07:30:52 51°22.2 2°48.576 19.7738 0.009297 0.049192 -3.020363
2011-04-20 07:30:56 51°22.213 2°48.566 19.779 0.009297 0.049196 -3.020363
2011-04-20 07:31:00 51°22.227 2°48.556 19.7786 0.009297 0.049199 -3.020363
2011-04-20 07:31:06 51°22.247 2°48.541 19.7758 0.009297 0.049199 -3.020363
2011-04-20 07:31:12 51°22.268 2°48.526 19.7724 0.009297 0.049202 -3.020363
2011-04-20 07:31:16 51°22.281 2°48.516 19.7742 0.009297 0.049206 -3.020363
2011-04-20 07:31:22 51°22.302 2°48.501 19.775 0.009297 0.049209 -3.020363
2011-04-20 07:31:26 51°22.315 2°48.491 19.7597 0.009297 0.049212 -3.020363
2011-04-20 07:31:32 51°22.335 2°48.475 19.7746 0.009297 0.049213 -3.020363
2011-04-20 07:31:36 51°22.349 2°48.465 19.7644 0.009297 0.049213 -3.020363
2011-04-20 07:31:42 51°22.369 2°48.45 19.7711 0.009297 0.049216 -3.020363
2011-04-20 07:31:46 51°22.383 2°48.44 19.7832 0.009297 0.049218 -3.020363
2011-04-20 07:31:52 51°22.403 2°48.425 19.7545 0.009297 0.049221 -3.020363
2011-04-20 07:31:56 51°22.417 2°48.415 19.7742 0.009297 0.049223 -3.020363
2011-04-20 07:32:02 51°22.437 2°48.4 19.7946 0.009297 0.049226 -3.020363
2011-04-20 07:32:06 51°22.451 2°48.39 19.803 0.009297 0.049226 -3.020363
2011-04-20 07:32:12 51°22.471 2°48.376 19.7644 0.009297 0.04923 -3.020363
2011-04-20 07:32:16 51°22.484 2°48.366 19.7932 0.009297 0.049234 -3.020363
2011-04-20 07:32:22 51°22.504 2°48.35 19.7495 0.009297 0.049239 -3.020363
2011-04-20 07:32:27 51°22.521 2°48.338 19.7892 0.009297 0.049243 -3.020363
2011-04-20 07:32:32 51°22.537 2°48.325 19.7726 0.009297 0.049245 -3.020363
2011-04-20 07:32:36 51°22.551 2°48.315 19.7743 0.009297 0.049245 -3.020363
2011-04-20 07:32:40 51°22.564 2°48.305 19.7758 0.009297 0.049245 -3.020363
2011-04-20 07:32:47 51°22.588 2°48.288 19.8 0.009297 0.049246 -3.020363
2011-04-20 07:32:52 51°22.605 2°48.276 19.7937 0.009297 0.049246 -3.020363
2011-04-20 07:32:56 51°22.618 2°48.266 19.7665 0.009297 0.04925 -3.020363
2011-04-20 07:33:00 51°22.632 2°48.257 19.7651 0.009297 0.049254 -3.020363
2011-04-20 07:33:06 51°22.652 2°48.242 19.7458 0.009297 0.049254 -3.020363
2011-04-20 07:33:12 51°22.672 2°48.228 19.779 0.009297 0.049257 -3.020363
2011-04-20 07:33:16 51°22.686 2°48.218 19.8038 0.009297 0.04926 -3.020363
2011-04-20 07:33:22 51°22.706 2°48.204 19.8148 0.009297 0.049262 -3.020363
2011-04-20 07:33:26 51°22.719 2°48.195 19.8151 0.009297 0.049267 -3.020363
2011-04-20 07:33:32 51°22.739 2°48.18 19.7724 0.009297 0.049271 -3.020363
2011-04-20 07:33:36 51°22.752 2°48.17 19.7498 0.009297 0.049271 -3.020363
2011-04-20 07:33:42 51°22.772 2°48.155 19.7545 0.009297 0.049273 -3.020363
2011-04-20 07:33:46 51°22.785 2°48.145 19.7805 0.009297 0.049273 -3.020363
2011-04-20 07:33:52 51°22.806 2°48.132 19.769 0.009297 0.049272 -3.020363
2011-04-20 07:33:56 51°22.819 2°48.122 19.7914 0.009297 0.049274 -3.020363
2011-04-20 07:34:02 51°22.839 2°48.108 19.7693 0.009297 0.049278 -3.020363
2011-04-20 07:34:06 51°22.852 2°48.099 19.7712 0.009297 0.049278 -3.020363
2011-04-20 07:34:12 51°22.872 2°48.084 19.8052 0.009297 0.049282 -3.020363
2011-04-20 07:34:16 51°22.886 2°48.075 19.7885 0.009297 0.049287 -3.020363
2011-04-20 07:34:22 51°22.906 2°48.06 19.7845 0.009297 0.049291 -3.020363
2011-04-20 07:34:26 51°22.919 2°48.05 19.7383 0.009297 0.049293 -3.020363
2011-04-20 07:34:32 51°22.939 2°48.035 19.7344 0.009297 0.049295 -3.020363
2011-04-20 07:34:36 51°22.952 2°48.025 19.7593 0.009297 0.049295 -3.020363
2011-04-20 07:34:40 51°22.965 2°48.015 19.7715 0.009297 0.049295 -3.020363
2011-04-20 07:34:47 51°22.989 2°47.999 19.7863 0.009297 0.049295 -3.020363
2011-04-20 07:34:52 51°23.005 2°47.986 19.7937 0.009297 0.049297 -3.020363
2011-04-20 07:34:56 51°23.018 2°47.977 19.7712 0.009297 0.049302 -3.020363
2011-04-20 07:35:00 51°23.031 2°47.967 19.7946 0.009297 0.049305 -3.020363
2011-04-20 07:35:06 51°23.051 2°47.952 19.7865 0.009297 0.049305 -3.020363
2011-04-20 07:35:12 51°23.071 2°47.937 19.7883 0.009297 0.04931 -3.020363
2011-04-20 07:35:16 51°23.084 2°47.926 19.7832 0.009297 0.049312 -3.020363
2011-04-20 07:35:20 51°23.097 2°47.916 19.7744 0.009297 0.049312 -3.020363
2011-04-20 07:35:26 51°23.117 2°47.901 19.7578 0.009297 0.049315 -3.020363
2011-04-20 07:35:32 51°23.137 2°47.886 19.7937 0.009297 0.049316 -3.020363
2011-04-20 07:35:36 51°23.15 2°47.877 19.8129 0.009297 0.049316 -3.020363
2011-04-20 07:35:42 51°23.17 2°47.862 19.8092 0.009297 0.049319 -3.020363
2011-04-20 07:35:46 51°23.183 2°47.852 19.7962 0.009297 0.049323 -3.020363
2011-04-20 07:35:52 51°23.203 2°47.837 19.7992 0.009297 0.049326 -3.020363
2011-04-20 07:35:56 51°23.216 2°47.826 19.8074 0.009297 0.04933 -3.020363
2011-04-20 07:36:02 51°23.236 2°47.811 19.77 0.009297 0.049333 -3.020363
2011-04-20 07:36:06 51°23.249 2°47.801 19.7946 0.009297 0.049333 -3.020363
2011-04-20 07:36:12 51°23.269 2°47.786 19.783 0.009297 0.049335 -3.020363
2011-04-20 07:36:16 51°23.282 2°47.776 19.7764 0.009297 0.049338 -3.020363
2011-04-20 07:36:22 51°23.302 2°47.762 19.7984 0.009297 0.049341 -3.020363
2011-04-20 07:36:26 51°23.315 2°47.752 19.8177 0.009297 0.049344 -3.020363
2011-04-20 07:36:32 51°23.335 2°47.738 19.8095 0.009297 0.049348 -3.020363
2011-04-20 07:36:36 51°23.349 2°47.728 19.8136 0.009297 0.049348 -3.020363
2011-04-20 07:36:40 51°23.362 2°47.719 19.7842 0.009297 0.049352 -3.020363
2011-04-20 07:36:47 51°23.385 2°47.702 19.8099 0.009297 0.049354 -3.020363
2011-04-20 07:36:52 51°23.402 2°47.689 19.7789 0.009297 0.049357 -3.020363
2011-04-20 07:36:56 51°23.415 2°47.679 19.7996 0.009297 0.049358 -3.020363
2011-04-20 07:37:00 51°23.428 2°47.669 19.8132 0.009297 0.049362 -3.020363
2011-04-20 07:37:07 51°23.451 2°47.652 19.809 0.009297 0.049362 -3.020363
2011-04-20 07:37:12 51°23.468 2°47.64 19.8207 0.009297 0.049363 -3.020363
2011-04-20 07:37:16 51°23.481 2°47.629 19.8061 0.009297 0.049367 -3.020363
2011-04-20 07:37:20 51°23.494 2°47.619 19.8141 0.009297 0.049371 -3.020363
2011-04-20 07:37:26 51°23.514 2°47.604 19.7793 0.009297 0.049373 -3.020363
2011-04-20 07:37:32 51°23.533 2°47.588 19.7868 0.009297 0.049375 -3.020363
2011-04-20 07:37:36 51°23.547 2°47.579 19.8123 0.009297 0.049375 -3.020363
2011-04-20 07:37:40 51°23.56 2°47.569 19.8289 0.009297 0.049375 -3.020363
2011-04-20 07:37:46 51°23.58 2°47.554 19.828 0.009297 0.049379 -3.020363
2011-04-20 07:37:52 51°23.599 2°47.538 19.8285 0.009297 0.049382 -3.020363
2011-04-20 07:37:56 51°23.613 2°47.528 19.7619 0.009297 0.049386 -3.020363
2011-04-20 07:38:02 51°23.632 2°47.513 19.8019 0.009297 0.049389 -3.020363
2011-04-20 07:38:06 51°23.645 2°47.502 19.8124 0.009297 0.049389 -3.020363
2011-04-20 07:38:12 51°23.665 2°47.487 19.801 0.009297 0.049392 -3.020363
2011-04-20 07:38:16 51°23.678 2°47.477 19.8 0.009297 0.049393 -3.020363
2011-04-20 07:38:22 51°23.698 2°47.462 19.8217 0.009297 0.049393 -3.020363
2011-04-20 07:38:26 51°23.711 2°47.452 19.8173 0.009297 0.049397 -3.020363
2011-04-20 07:38:32 51°23.731 2°47.437 19.8288 0.009297 0.0494 -3.020363
2011-04-20 07:38:36 51°23.744 2°47.427 19.818 0.009297 0.0494 -3.020363
2011-04-20 07:38:42 51°23.764 2°47.413 19.8217 0.009297 0.049403 -3.020363
2011-04-20 07:38:46 51°23.777 2°47.403 19.8298 0.009297 0.049407 -3.020363
2011-04-20 07:38:52 51°23.797 2°47.387 19.8175 0.009297 0.049412 -3.020363
2011-04-20 07:38:56 51°23.81 2°47.377 19.8221 0.009297 0.049416 -3.020363
2011-04-20 07:39:00 51°23.823 2°47.366 19.8214 0.009297 0.04942 -3.020363
2011-04-20 07:39:07 51°23.846 2°47.347 19.8238 0.009297 0.04942 -3.020363
2011-04-20 07:39:12 51°23.862 2°47.334 19.8135 0.009297 0.049422 -3.020363
2011-04-20 07:39:16 51°23.876 2°47.324 19.7823 0.009194 0.048954 -3.020363
2011-04-20 07:39:20 51°23.889 2°47.313 19.8157 0.009194 0.048955 -3.020363
2011-04-20 07:39:27 51°23.912 2°47.295 19.828 0.009194 0.048958 -3.020363
2011-04-20 07:39:32 51°23.928 2°47.282 19.8196 0.009194 0.04896 -3.020363
2011-04-20 07:39:36 51°23.941 2°47.272 19.801 0.009194 0.04896 -3.020363
2011-04-20 07:39:40 51°23.955 2°47.262 19.8277 0.009194 0.048964 -3.020363
2011-04-20 07:39:46 51°23.974 2°47.247 19.8371 0.009194 0.048967 -3.020363
2011-04-20 07:39:52 51°23.994 2°47.231 19.8229 0.009194 0.04897 -3.020363
2011-04-20 07:39:56 51°24.007 2°47.221 19.8059 0.009194 0.048974 -3.020363
2011-04-20 07:40:02 51°24.027 2°47.206 19.8114 0.009194 0.048978 -3.020363
2011-04-20 07:40:06 51°24.04 2°47.195 19.8388 0.009194 0.048978 -3.020363
2011-04-20 07:40:12 51°24.06 2°47.18 19.8175 0.009194 0.048981 -3.020363
2011-04-20 07:40:16 51°24.073 2°47.17 19.8249 0.009194 0.048983 -3.020363
2011-04-20 07:40:21 51°24.09 2°47.157 19.8178 0.009194 0.048986 -3.020363
2011-04-20 07:40:26 51°24.106 2°47.144 19.8466 0.009194 0.048988 -3.020363
2011-04-20 07:40:32 51°24.126 2°47.129 19.8399 0.009194 0.048992 -3.020363
2011-04-20 07:40:36 51°24.139 2°47.118 19.8353 0.009194 0.048992 -3.020363
2011-04-20 07:40:42 51°24.158 2°47.102 19.8232 0.009194 0.048995 -3.020363
2011-04-20 07:40:46 51°24.171 2°47.092 19.8339 0.009194 0.048998 -3.020363
2011-04-20 07:40:52 51°24.191 2°47.076 19.828 0.009194 0.049001 -3.020363
2011-04-20 07:40:56 51°24.204 2°47.066 19.8285 0.009194 0.049 -3.020363
2011-04-20 07:41:00 51°24.217 2°47.056 19.8245 0.009194 0.049002 -3.020363
2011-04-20 07:41:06 51°24.237 2°47.041 19.8409 0.009194 0.049002 -3.020363
2011-04-20 07:41:12 51°24.257 2°47.026 19.8396 0.009194 0.049003 -3.020363
2011-04-20 07:41:16 51°24.27 2°47.016 19.8338 0.009194 0.049007 -3.020363
2011-04-20 07:41:20 51°24.283 2°47.006 19.8477 0.009194 0.049011 -3.020363
2011-04-20 07:41:27 51°24.306 2°46.989 19.8214 0.009194 0.049015 -3.020363
2011-04-20 07:41:32 51°24.323 2°46.976 19.8351 0.009194 0.049018 -3.020363
2011-04-20 07:41:36 51°24.336 2°46.966 19.8424 0.009194 0.049018 -3.020363
2011-04-20 07:41:40 51°24.349 2°46.956 19.8401 0.009194 0.049021 -3.020363
2011-04-20 07:41:46 51°24.369 2°46.941 19.8258 0.009194 0.049023 -3.020363
2011-04-20 07:41:52 51°24.389 2°46.925 19.8413 0.009194 0.049025 -3.020363
2011-04-20 07:41:56 51°24.402 2°46.915 19.8376 0.009194 0.049028 -3.020363
2011-04-20 07:42:00 51°24.415 2°46.905 19.8538 0.009194 0.049031 -3.020363
2011-04-20 07:42:06 51°24.435 2°46.889 19.8427 0.009194 0.049031 -3.020363
2011-04-20 07:42:12 51°24.455 2°46.874 19.8604 0.009194 0.049032 -3.020363
2011-04-20 07:42:16 51°24.468 2°46.864 19.8473 0.009194 0.049036 -3.020363
2011-04-20 07:42:20 51°24.481 2°46.854 19.8554 0.009194 0.049037 -3.020363
2011-04-20 07:42:26 51°24.501 2°46.839 19.8351 0.009194 0.049042 -3.020363
2011-04-20 07:42:32 51°24.521 2°46.824 19.8431 0.009194 0.049045 -3.020363
2011-04-20 07:42:36 51°24.534 2°46.813 19.8352 0.009194 0.049045 -3.020363
2011-04-20 07:42:42 51°24.553 2°46.798 19.8473 0.009194 0.049047 -3.020363
2011-04-20 07:42:46 51°24.567 2°46.787 19.8326 0.009194 0.049051 -3.020363
2011-04-20 07:42:52 51°24.586 2°46.772 19.8387 0.009194 0.049051 -3.020363
2011-04-20 07:42:56 51°24.599 2°46.762 19.8584 0.009194 0.049055 -3.020363
2011-04-20 07:43:02 51°24.619 2°46.747 19.871 0.009194 0.049057 -3.020363
2011-04-20 07:43:06 51°24.632 2°46.737 19.848 0.009194 0.049057 -3.020363
2011-04-20 07:43:12 51°24.652 2°46.722 19.8617 0.009194 0.049059 -3.020363
2011-04-20 07:43:16 51°24.665 2°46.712 19.8672 0.009194 0.049063 -3.020363
2011-04-20 07:43:20 51°24.678 2°46.702 19.8701 0.009194 0.049065 -3.020363
2011-04-20 07:43:26 51°24.697 2°46.686 19.8485 0.009194 0.049069 -3.020363
2011-04-20 07:43:32 51°24.717 2°46.671 19.8644 0.009194 0.049072 -3.020363
2011-04-20 07:43:36 51°24.73 2°46.661 19.8518 0.009194 0.049072 -3.020363
2011-04-20 07:43:40 51°24.743 2°46.65 19.8692 0.009194 0.049075 -3.020363
2011-04-20 07:43:46 51°24.763 2°46.635 19.8562 0.009194 0.049078 -3.020363
2011-04-20 07:43:52 51°24.783 2°46.62 19.8552 0.009194 0.04908 -3.020363
2011-04-20 07:43:56 51°24.796 2°46.61 19.8575 0.009194 0.049084 -3.020363
2011-04-20 07:44:00 51°24.809 2°46.599 19.8528 0.009194 0.049086 -3.020363
2011-04-20 07:44:07 51°24.832 2°46.581 19.8485 0.009194 0.049086 -3.020363
2011-04-20 07:44:12 51°24.848 2°46.569 19.8529 0.009194 0.049089 -3.020363
2011-04-20 07:44:16 51°24.861 2°46.559 19.8784 0.009194 0.049092 -3.020363
2011-04-20 07:44:20 51°24.875 2°46.549 19.8495 0.009194 0.049096 -3.020363
2011-04-20 07:44:26 51°24.894 2°46.534 19.8591 0.009194 0.049098 -3.020363
2011-04-20 07:44:32 51°24.914 2°46.518 19.8875 0.009194 0.049103 -3.020363
2011-04-20 07:44:36 51°24.927 2°46.508 19.8597 0.009194 0.049103 -3.020363
2011-04-20 07:44:42 51°24.947 2°46.493 19.8639 0.009194 0.049105 -3.020363
2011-04-20 07:44:46 51°24.96 2°46.483 19.8549 0.009194 0.049108 -3.020363
2011-04-20 07:44:52 51°24.98 2°46.467 19.8416 0.009194 0.04911 -3.020363
2011-04-20 07:44:56 51°24.993 2°46.457 19.8525 0.009194 0.049113 -3.020363
2011-04-20 07:45:02 51°25.013 2°46.442 19.8669 0.009194 0.049115 -3.020363
2011-04-20 07:45:06 51°25.026 2°46.432 19.8477 0.009194 0.049115 -3.020363
2011-04-20 07:45:12 51°25.046 2°46.417 19.8519 0.009194 0.049118 -3.020363
2011-04-20 07:45:16 51°25.059 2°46.407 19.8761 0.009194 0.049119 -3.020363
2011-04-20 07:45:22 51°25.079 2°46.391 19.8657 0.009194 0.049124 -3.020363
2011-04-20 07:45:26 51°25.092 2°46.381 19.8614 0.009194 0.049127 -3.020363
2011-04-20 07:45:32 51°25.112 2°46.365 19.8624 0.009194 0.049132 -3.020363
2011-04-20 07:45:36 51°25.125 2°46.355 19.8661 0.009194 0.049132 -3.020363
2011-04-20 07:45:42 51°25.145 2°46.339 19.8519 0.009194 0.049135 -3.020363
2011-04-20 07:45:46 51°25.158 2°46.329 19.8734 0.009194 0.049138 -3.020363
2011-04-20 07:45:52 51°25.178 2°46.314 19.8574 0.009194 0.04914 -3.020363
2011-04-20 07:45:56 51°25.191 2°46.304 19.8766 0.009194 0.049139 -3.020363
2011-04-20 07:46:00 51°25.205 2°46.294 19.8881 0.009194 0.049142 -3.020363
2011-04-20 07:46:07 51°25.228 2°46.277 19.8786 0.009194 0.049142 -3.020363
2011-04-20 07:46:12 51°25.245 2°46.264 19.8736 0.009194 0.049145 -3.020363
2011-04-20 07:46:16 51°25.258 2°46.254 19.8813 0.009194 0.049149 -3.020363
2011-04-20 07:46:20 51°25.271 2°46.244 19.8765 0.009194 0.049154 -3.020363
2011-04-20 07:46:26 51°25.291 2°46.228 19.8556 0.009194 0.049157 -3.020363
2011-04-20 07:46:32 51°25.311 2°46.213 19.8563 0.009194 0.049159 -3.020363
2011-04-20 07:46:36 51°25.324 2°46.203 19.8756 0.009194 0.049159 -3.020363
2011-04-20 07:46:40 51°25.337 2°46.192 19.8723 0.009194 0.049159 -3.020363
2011-04-20 07:46:46 51°25.357 2°46.177 19.8713 0.009194 0.04916 -3.020363
2011-04-20 07:46:52 51°25.377 2°46.162 19.8707 0.009194 0.049163 -3.020363
2011-04-20 07:46:56 51°25.39 2°46.151 19.8931 0.009194 0.049167 -3.020363
2011-04-20 07:47:02 51°25.41 2°46.136 19.8734 0.009194 0.049171 -3.020363
2011-04-20 07:47:06 51°25.424 2°46.125 19.8793 0.009194 0.049171 -3.020363
2011-04-20 07:47:12 51°25.443 2°46.11 19.8744 0.009194 0.049173 -3.020363
2011-04-20 07:47:16 51°25.457 2°46.1 19.8916 0.009194 0.049175 -3.020363
2011-04-20 07:47:22 51°25.477 2°46.085 19.8844 0.009194 0.049176 -3.020363
2011-04-20 07:47:26 51°25.49 2°46.075 19.8781 0.009194 0.049176 -3.020363
2011-04-20 07:47:32 51°25.51 2°46.059 19.8847 0.009194 0.049179 -3.020363
2011-04-20 07:47:36 51°25.524 2°46.05 19.8673 0.009194 0.049179 -3.020363
2011-04-20 07:47:42 51°25.544 2°46.035 19.8892 0.009194 0.049183 -3.020363
2011-04-20 07:47:46 51°25.557 2°46.025 19.8846 0.009194 0.049185 -3.020363
2011-04-20 07:47:52 51°25.577 2°46.01 19.8939 0.009194 0.049189 -3.020363
2011-04-20 07:47:56 51°25.59 2°45.999 19.8726 0.009194 0.049193 -3.020363
2011-04-20 07:48:02 51°25.61 2°45.984 19.8936 0.009194 0.049195 -3.020363
2011-04-20 07:48:07 51°25.627 2°45.972 19.9061 0.009194 0.049195 -3.020363
2011-04-20 07:48:12 51°25.644 2°45.96 19.9116 0.009194 0.049197 -3.020363
2011-04-20 07:48:16 51°25.657 2°45.95 19.8971 0.009194 0.0492 -3.020363
2011-04-20 07:48:21 51°25.673 2°45.938 19.9175 0.009194 0.049202 -3.020363
2011-04-20 07:48:26 51°25.69 2°45.925 19.8743 0.009194 0.049209 -3.020363
2011-04-20 07:48:32 51°25.71 2°45.909 19.8661 0.009194 0.049212 -3.020363
2011-04-20 07:48:36 51°25.723 2°45.899 19.8817 0.009194 0.049212 -3.020363
2011-04-20 07:48:41 51°25.739 2°45.887 19.8949 0.009194 0.049213 -3.020363
2011-04-20 07:48:46 51°25.756 2°45.874 19.8973 0.009194 0.049216 -3.020363
2011-04-20 07:48:52 51°25.776 2°45.86 19.9122 0.009194 0.049215 -3.020363
2011-04-20 07:48:56 51°25.789 2°45.85 19.8816 0.009194 0.049219 -3.020363
2011-04-20 07:49:01 51°25.805 2°45.837 19.9007 0.009194 0.049221 -3.020363
2011-04-20 07:49:06 51°25.822 2°45.825 19.9082 0.009194 0.049221 -3.020363
2011-04-20 07:49:12 51°25.842 2°45.81 19.9163 0.009194 0.049224 -3.020363
2011-04-20 07:49:16 51°25.855 2°45.8 19.8891 0.009194 0.049228 -3.020363
2011-04-20 07:49:21 51°25.871 2°45.787 19.8893 0.009194 0.049231 -3.020363
2011-04-20 07:49:26 51°25.888 2°45.775 19.8763 0.009194 0.049235 -3.020363
2011-04-20 07:49:32 51°25.907 2°45.759 19.9122 0.009194 0.049235 -3.020363
2011-04-20 07:49:36 51°25.921 2°45.75 19.8947 0.009194 0.049235 -3.020363
2011-04-20 07:49:41 51°25.937 2°45.737 19.9026 0.009194 0.049236 -3.020363
2011-04-20 07:49:47 51°25.957 2°45.723 19.9001 0.009194 0.04924 -3.020363
2011-04-20 07:49:52 51°25.974 2°45.71 19.904 0.009092 0.048765 -3.020363
2011-04-20 07:49:56 51°25.987 2°45.701 19.9172 0.009092 0.048769 -3.020363
2011-04-20 07:50:01 51°26.004 2°45.689 19.9139 0.009092 0.048771 -3.020363
2011-04-20 07:50:07 51°26.024 2°45.674 19.9051 0.009092 0.048771 -3.020363
2011-04-20 07:50:12 51°26.04 2°45.662 19.9128 0.009092 0.048775 -3.020363
2011-04-20 07:50:16 51°26.053 2°45.652 19.928 0.009092 0.048779 -3.020363
2011-04-20 07:50:21 51°26.07 2°45.64 19.9295 0.009092 0.048781 -3.020363
2011-04-20 07:50:27 51°26.09 2°45.624 19.9379 0.009092 0.048784 -3.020363
2011-04-20 07:50:32 51°26.106 2°45.611 19.8804 0.009092 0.048787 -3.020363
2011-04-20 07:50:36 51°26.119 2°45.601 19.9069 0.009092 0.048787 -3.020363
2011-04-20 07:50:41 51°26.136 2°45.588 19.8727 0.009092 0.048788 -3.020363
2011-04-20 07:50:47 51°26.155 2°45.573 19.9146 0.009092 0.048789 -3.020363
2011-04-20 07:50:52 51°26.172 2°45.561 19.9035 0.009092 0.048792 -3.020363
2011-04-20 07:50:56 51°26.185 2°45.551 19.9081 0.009092 0.048791 -3.020363
2011-04-20 07:51:02 51°26.205 2°45.537 19.9016 0.009092 0.048795 -3.020363
2011-04-20 07:51:06 51°26.218 2°45.527 19.9186 0.009092 0.048795 -3.020363
2011-04-20 07:51:12 51°26.238 2°45.513 19.9164 0.009092 0.048798 -3.020363
2011-04-20 07:51:16 51°26.252 2°45.503 19.9138 0.009092 0.048803 -3.020363
2011-04-20 07:51:21 51°26.268 2°45.49 19.9206 0.009092 0.048808 -3.020363
2011-04-20 07:51:26 51°26.285 2°45.478 19.9236 0.009092 0.048811 -3.020363
2011-04-20 07:51:32 51°26.305 2°45.463 19.9193 0.009092 0.048814 -3.020363
2011-04-20 07:51:36 51°26.318 2°45.453 19.9163 0.009092 0.048814 -3.020363
2011-04-20 07:51:41 51°26.335 2°45.441 19.9342 0.009092 0.048814 -3.020363
2011-04-20 07:51:46 51°26.351 2°45.429 19.9089 0.009092 0.048817 -3.020363
2011-04-20 07:51:52 51°26.371 2°45.414 19.9289 0.009092 0.048818 -3.020363
2011-04-20 07:51:56 51°26.384 2°45.404 19.9147 0.009092 0.04882 -3.020363
2011-04-20 07:52:01 51°26.401 2°45.391 19.9329 0.009092 0.048824 -3.020363
2011-04-20 07:52:06 51°26.418 2°45.379 19.938 0.009092 0.048824 -3.020363
2011-04-20 07:52:12 51°26.438 2°45.365 19.9171 0.009092 0.048826 -3.020363
2011-04-20 07:52:16 51°26.451 2°45.354 19.9318 0.009092 0.04883 -3.020363
2011-04-20 07:52:21 51°26.468 2°45.342 19.9244 0.009092 0.048832 -3.020363
2011-04-20 07:52:27 51°26.487 2°45.328 19.9164 0.009092 0.048832 -3.020363
2011-04-20 07:52:32 51°26.504 2°45.316 19.9252 0.009092 0.048836 -3.020363
2011-04-20 07:52:36 51°26.517 2°45.306 19.9146 0.009092 0.048836 -3.020363
2011-04-20 07:52:41 51°26.534 2°45.294 19.9181 0.009092 0.048837 -3.020363
2011-04-20 07:52:46 51°26.551 2°45.282 19.9134 0.009092 0.04884 -3.020363
2011-04-20 07:52:52 51°26.571 2°45.267 19.9412 0.009092 0.048843 -3.020363
2011-04-20 07:52:56 51°26.584 2°45.258 19.9009 0.009092 0.048849 -3.020363
2011-04-20 07:53:01 51°26.6 2°45.245 19.937 0.009092 0.04885 -3.020363
2011-04-20 07:53:06 51°26.617 2°45.234 19.934 0.009092 0.04885 -3.020363
2011-04-20 07:53:12 51°26.637 2°45.219 19.9235 0.009092 0.048853 -3.020363
2011-04-20 07:53:16 51°26.65 2°45.209 19.9455 0.009092 0.048856 -3.020363
2011-04-20 07:53:21 51°26.666 2°45.197 19.9391 0.009092 0.048856 -3.020363
2011-04-20 07:53:26 51°26.683 2°45.184 19.9444 0.009092 0.04886 -3.020363
2011-04-20 07:53:32 51°26.702 2°45.169 19.8835 0.009092 0.048863 -3.020363
2011-04-20 07:53:36 51°26.715 2°45.158 19.9439 0.009092 0.048863 -3.020363
2011-04-20 07:53:41 51°26.731 2°45.146 19.9149 0.009092 0.048864 -3.020363
2011-04-20 07:53:46 51°26.747 2°45.133 19.9513 0.009092 0.048866 -3.020363
2011-04-20 07:53:52 51°26.767 2°45.118 19.9211 0.009092 0.04887 -3.020363
2011-04-20 07:53:56 51°26.78 2°45.108 19.9277 0.009092 0.048871 -3.020363
2011-04-20 07:54:01 51°26.796 2°45.096 19.9258 0.009092 0.048875 -3.020363
2011-04-20 07:54:06 51°26.812 2°45.084 19.9578 0.009092 0.048875 -3.020363
2011-04-20 07:54:12 51°26.831 2°45.069 19.9404 0.009092 0.048877 -3.020363
2011-04-20 07:54:16 51°26.844 2°45.059 19.9357 0.009092 0.048878 -3.020363
2011-04-20 07:54:21 51°26.86 2°45.047 19.933 0.009092 0.048883 -3.020363
2011-04-20 07:54:27 51°26.88 2°45.032 19.9276 0.009092 0.048887 -3.020363
2011-04-20 07:54:32 51°26.896 2°45.02 19.9512 0.009092 0.048889 -3.020363
2011-04-20 07:54:36 51°26.909 2°45.009 19.9138 0.009092 0.048889 -3.020363
2011-04-20 07:54:41 51°26.925 2°44.997 19.9435 0.009092 0.048893 -3.020363
2011-04-20 07:54:47 51°26.944 2°44.982 19.9075 0.009092 0.048896 -3.020363
2011-04-20 07:54:52 51°26.961 2°44.97 19.938 0.009092 0.048895 -3.020363
2011-04-20 07:54:56 51°26.974 2°44.96 19.914 0.009092 0.048899 -3.020363
2011-04-20 07:55:01 51°26.99 2°44.948 19.9491 0.009092 0.0489 -3.020363
2011-04-20 07:55:07 51°27.009 2°44.933 19.9398 0.009092 0.0489 -3.020363
2011-04-20 07:55:12 51°27.026 2°44.921 19.9292 0.009092 0.048899 -3.020363
2011-04-20 07:55:16 51°27.038 2°44.91 19.9334 0.009092 0.048904 -3.020363
2011-04-20 07:55:21 51°27.054 2°44.898 19.9518 0.009092 0.048906 -3.020363
2011-04-20 07:55:26 51°27.071 2°44.885 19.9369 0.009092 0.04891 -3.020363
2011-04-20 07:55:32 51°27.09 2°44.87 19.9465 0.009092 0.048914 -3.020363
2011-04-20 07:55:36 51°27.103 2°44.86 19.9184 0.009092 0.048914 -3.020363
2011-04-20 07:55:41 51°27.119 2°44.847 19.933 0.009092 0.048917 -3.020363
2011-04-20 07:55:46 51°27.135 2°44.835 19.9148 0.009092 0.048921 -3.020363
2011-04-20 07:55:52 51°27.155 2°44.82 19.9416 0.009092 0.048921 -3.020363
2011-04-20 07:55:56 51°27.168 2°44.81 19.9486 0.009092 0.048923 -3.020363
2011-04-20 07:56:01 51°27.184 2°44.798 19.9474 0.009092 0.048926 -3.020363
2011-04-20 07:56:06 51°27.201 2°44.786 19.9502 0.009092 0.048926 -3.020363
2011-04-20 07:56:12 51°27.22 2°44.771 19.9178 0.009092 0.048924 -3.020363
2011-04-20 07:56:16 51°27.233 2°44.761 19.9574 0.009092 0.048927 -3.020363
2011-04-20 07:56:21 51°27.25 2°44.75 19.9287 0.009092 0.048929 -3.020363
2011-04-20 07:56:26 51°27.266 2°44.737 19.9594 0.009092 0.048928 -3.020363
2011-04-20 07:56:32 51°27.286 2°44.724 19.9229 0.009092 0.048936 -3.020363
2011-04-20 07:56:36 51°27.299 2°44.713 19.9601 0.009092 0.048936 -3.020363
2011-04-20 07:56:41 51°27.315 2°44.702 19.9085 0.009092 0.048938 -3.020363
2011-04-20 07:56:47 51°27.335 2°44.686 19.9671 0.009092 0.048943 -3.020363
2011-04-20 07:56:52 51°27.351 2°44.674 19.8907 0.009092 0.048949 -3.020363
2011-04-20 07:56:56 51°27.364 2°44.663 19.9438 0.009092 0.048952 -3.020363
2011-04-20 07:57:01 51°27.381 2°44.652 19.9155 0.009092 0.048956 -3.020363
2011-04-20 07:57:07 51°27.4 2°44.636 19.9383 0.009092 0.048956 -3.020363
2011-04-20 07:57:12 51°27.416 2°44.625 19.954 0.009092 0.048959 -3.020363
2011-04-20 07:57:16 51°27.429 2°44.615 19.9512 0.009092 0.048962 -3.020363
2011-04-20 07:57:21 51°27.446 2°44.603 19.9681 0.009092 0.048962 -3.020363
2011-04-20 07:57:27 51°27.465 2°44.588 19.9472 0.009092 0.048965 -3.020363
2011-04-20 07:57:32 51°27.482 2°44.575 19.9514 0.009092 0.048966 -3.020363
2011-04-20 07:57:36 51°27.495 2°44.565 19.918 0.009092 0.048966 -3.020363
2011-04-20 07:57:41 51°27.511 2°44.552 19.9463 0.009092 0.048962 -3.020363
2011-04-20 07:57:46 51°27.527 2°44.539 19.9271 0.009092 0.04897 -3.020363
2011-04-20 07:57:52 51°27.547 2°44.525 19.9645 0.009092 0.048969 -3.020363
2011-04-20 07:57:56 51°27.56 2°44.515 19.9432 0.009092 0.048971 -3.020363
2011-04-20 07:58:01 51°27.576 2°44.502 19.9722 0.009092 0.048979 -3.020363
2011-04-20 07:58:06 51°27.592 2°44.49 19.9466 0.009092 0.048979 -3.020363
2011-04-20 07:58:12 51°27.612 2°44.475 19.9606 0.009092 0.048982 -3.020363
2011-04-20 07:58:16 51°27.625 2°44.465 19.9303 0.009092 0.048984 -3.020363
2011-04-20 07:58:21 51°27.641 2°44.452 19.9633 0.009092 0.048983 -3.020363
2011-04-20 07:58:26 51°27.658 2°44.44 19.93 0.009092 0.048986 -3.020363
2011-04-20 07:58:32 51°27.677 2°44.425 19.9588 0.009092 0.048984 -3.020363
2011-04-20 07:58:36 51°27.69 2°44.415 19.9394 0.009092 0.048984 -3.020363
2011-04-20 07:58:41 51°27.706 2°44.403 19.9527 0.009092 0.048986 -3.020363
2011-04-20 07:58:46 51°27.723 2°44.39 19.9624 0.009092 0.048988 -3.020363
2011-04-20 07:58:52 51°27.742 2°44.376 19.9322 0.009092 0.048984 -3.020363
2011-04-20 07:58:56 51°27.755 2°44.366 19.9639 0.009092 0.048983 -3.020363
2011-04-20 07:59:01 51°27.772 2°44.354 19.9434 0.009092 0.048983 -3.020363
2011-04-20 07:59:07 51°27.791 2°44.339 19.9594 0.009092 0.048983 -3.020363
2011-04-20 07:59:12 51°27.808 2°44.328 19.9288 0.009092 0.048983 -3.020363
2011-04-20 07:59:16 51°27.821 2°44.317 19.9641 0.009092 0.048986 -3.020363
2011-04-20 07:59:21 51°27.837 2°44.306 19.9241 0.009092 0.048991 -3.020363
2011-04-20 07:59:27 51°27.857 2°44.29 19.9637 0.009092 0.048991 -3.020363
2011-04-20 07:59:32 51°27.873 2°44.279 19.9256 0.009092 0.048995 -3.020363
2011-04-20 07:59:36 51°27.886 2°44.268 19.9256 0.009092 0.048995 -3.020363
2011-04-20 07:59:41 51°27.903 2°44.257 19.9278 0.009092 0.048994 -3.020363
2011-04-20 07:59:46 51°27.919 2°44.244 19.9133 0.009092 0.048999 -3.020363
2011-04-20 07:59:52 51°27.939 2°44.231 19.9384 0.009092 0.048999 -3.020363
2011-04-20 07:59:56 51°27.952 2°44.22 19.9005 0.009092 0.049002 -3.020363
2011-04-20 08:00:01 51°27.968 2°44.208 19.9564 0.009092 0.049003 -3.020363
2011-04-20 08:00:06 51°27.985 2°44.196 19.8871 0.009092 0.049003 -3.020363
2011-04-20 08:00:12 51°28.004 2°44.181 19.9803 0.009092 0.049002 -3.020363
2011-04-20 08:00:16 51°28.017 2°44.173 19.8913 0.009092 0.049009 -3.020363
2011-04-20 08:00:21 51°28.033 2°44.159 19.974 0.009092 0.049012 -3.020363
2011-04-20 08:00:26 51°28.05 2°44.148 19.8939 0.009092 0.049014 -3.020363
2011-04-20 08:00:32 51°28.069 2°44.131 19.945 0.009092 0.049019 -3.020363
2011-04-20 08:00:36 51°28.083 2°44.123 19.9054 0.009092 0.049019 -3.020363
2011-04-20 08:00:41 51°28.099 2°44.109 19.9182 0.009092 0.049025 -3.020363
2011-04-20 08:00:46 51°28.115 2°44.098 19.9419 0.009092 0.049036 -3.020363
2011-04-20 08:00:52 51°28.135 2°44.082 19.9047 0.009092 0.049047 -3.020363
2011-04-20 08:00:56 51°28.148 2°44.073 19.9664 0.009092 0.049047 -3.020363
2011-04-20 08:01:01 51°28.164 2°44.061 19.911 0.008989 0.048571 -3.020363
2011-04-20 08:01:07 51°28.184 2°44.046 19.982 0.008989 0.048571 -3.020363
2011-04-20 08:01:12 51°28.2 2°44.034 19.9011 0.008989 0.048572 -3.020363
2011-04-20 08:01:16 51°28.213 2°44.024 19.9762 0.008989 0.048574 -3.020363
2011-04-20 08:01:21 51°28.23 2°44.013 19.9117 0.008989 0.048577 -3.020363
2011-04-20 08:01:27 51°28.249 2°43.998 19.9564 0.008989 0.048576 -3.020363
2011-04-20 08:01:32 51°28.266 2°43.986 19.904 0.008989 0.04858 -3.020363
2011-04-20 08:01:36 51°28.278 2°43.975 19.963 0.008989 0.04858 -3.020363
2011-04-20 08:01:41 51°28.295 2°43.964 19.9318 0.008989 0.04858 -3.020363
2011-04-20 08:01:47 51°28.314 2°43.949 19.9459 0.008989 0.048584 -3.020363
2011-04-20 08:01:52 51°28.331 2°43.937 19.9253 0.008989 0.048587 -3.020363
2011-04-20 08:01:56 51°28.344 2°43.927 19.9567 0.008989 0.048587 -3.020363
2011-04-20 08:02:01 51°28.36 2°43.916 19.9196 0.008989 0.04859 -3.020363
2011-04-20 08:02:06 51°28.376 2°43.903 19.9608 0.008989 0.04859 -3.020363
2011-04-20 08:02:12 51°28.396 2°43.889 19.9166 0.008989 0.048587 -3.020363
2011-04-20 08:02:16 51°28.409 2°43.878 19.9787 0.008989 0.048587 -3.020363
2011-04-20 08:02:21 51°28.426 2°43.867 19.9201 0.008989 0.048593 -3.020363